<?xml version="1.0" encoding="UTF-8" standalone="no" ?><gpx xmlns="http://www.topografix.com/GPX/1/1" xmlns:gpxx="http://www.garmin.com/xmlschemas/GpxExtensions/v3" xmlns:gpxtrkx="http://www.garmin.com/xmlschemas/TrackStatsExtension/v1" xmlns:wptx1="http://www.garmin.com/xmlschemas/WaypointExtension/v1" xmlns:gpxtpx="http://www.garmin.com/xmlschemas/TrackPointExtension/v1" creator="eTrex 30" version="1.1" xmlns:xsi="http://www.w3.org/2001/XMLSchema-instance" xsi:schemaLocation="http://www.topografix.com/GPX/1/1 http://www.topografix.com/GPX/1/1/gpx.xsd http://www.garmin.com/xmlschemas/GpxExtensions/v3 http://www8.garmin.com/xmlschemas/GpxExtensionsv3.xsd http://www.garmin.com/xmlschemas/TrackStatsExtension/v1 http://www8.garmin.com/xmlschemas/TrackStatsExtension.xsd http://www.garmin.com/xmlschemas/WaypointExtension/v1 http://www8.garmin.com/xmlschemas/WaypointExtensionv1.xsd http://www.garmin.com/xmlschemas/TrackPointExtension/v1 http://www.garmin.com/xmlschemas/TrackPointExtensionv1.xsd"><metadata><link href="http://www.garmin.com"><text>Garmin International</text></link><time>2017-04-09T14:31:17Z</time></metadata><trk><name>2017-04-09 16:31:09</name><extensions><gpxx:TrackExtension><gpxx:DisplayColor>Black</gpxx:DisplayColor></gpxx:TrackExtension><gpxtrkx:TrackStatsExtension><gpxtrkx:Distance>16518</gpxtrkx:Distance></gpxtrkx:TrackStatsExtension></extensions><trkseg><trkpt lat="43.7149079796" lon="5.3304374591"><ele>175.58</ele><time>2017-04-09T07:48:35Z</time></trkpt><trkpt lat="43.7149075605" lon="5.3304382972"><ele>175.58</ele><time>2017-04-09T07:48:36Z</time></trkpt><trkpt lat="43.7149059679" lon="5.3304404765"><ele>175.58</ele><time>2017-04-09T07:48:37Z</time></trkpt><trkpt lat="43.7149117514" lon="5.3304402251"><ele>175.58</ele><time>2017-04-09T07:48:46Z</time></trkpt><trkpt lat="43.7149094883" lon="5.3304291610"><ele>176.06</ele><time>2017-04-09T07:49:11Z</time></trkpt><trkpt lat="43.7148879468" lon="5.3304046020"><ele>175.58</ele><time>2017-04-09T07:49:32Z</time></trkpt><trkpt lat="43.7149349693" lon="5.3304815479"><ele>175.58</ele><time>2017-04-09T07:49:48Z</time></trkpt><trkpt lat="43.7149282638" lon="5.3305757605"><ele>175.58</ele><time>2017-04-09T07:49:59Z</time></trkpt><trkpt lat="43.7149501406" lon="5.3307319991"><ele>175.58</ele><time>2017-04-09T07:50:15Z</time></trkpt><trkpt lat="43.7149483804" lon="5.3307415545"><ele>174.62</ele><time>2017-04-09T07:50:17Z</time></trkpt><trkpt lat="43.7149268389" lon="5.3308670316"><ele>174.62</ele><time>2017-04-09T07:50:33Z</time></trkpt><trkpt lat="43.7149174511" lon="5.3309730627"><ele>174.14</ele><time>2017-04-09T07:50:48Z</time></trkpt><trkpt lat="43.7148995977" lon="5.3310152236"><ele>174.14</ele><time>2017-04-09T07:50:51Z</time></trkpt><trkpt lat="43.7148046307" lon="5.3313189000"><ele>174.14</ele><time>2017-04-09T07:51:09Z</time></trkpt><trkpt lat="43.7147797365" lon="5.3315190598"><ele>174.14</ele><time>2017-04-09T07:51:20Z</time></trkpt><trkpt lat="43.7147680018" lon="5.3316481411"><ele>174.14</ele><time>2017-04-09T07:51:36Z</time></trkpt><trkpt lat="43.7147400063" lon="5.3318768833"><ele>174.14</ele><time>2017-04-09T07:51:52Z</time></trkpt><trkpt lat="43.7147390842" lon="5.3318916354"><ele>174.14</ele><time>2017-04-09T07:51:53Z</time></trkpt><trkpt lat="43.7146826740" lon="5.3320706729"><ele>174.14</ele><time>2017-04-09T07:52:09Z</time></trkpt><trkpt lat="43.7147030421" lon="5.3321469482"><ele>174.14</ele><time>2017-04-09T07:52:17Z</time></trkpt><trkpt lat="43.7146849371" lon="5.3323277459"><ele>174.14</ele><time>2017-04-09T07:52:32Z</time></trkpt><trkpt lat="43.7146457098" lon="5.3325196076"><ele>173.66</ele><time>2017-04-09T07:52:48Z</time></trkpt><trkpt lat="43.7146028783" lon="5.3327780217"><ele>173.66</ele><time>2017-04-09T07:53:06Z</time></trkpt><trkpt lat="43.7145773135" lon="5.3330273833"><ele>173.66</ele><time>2017-04-09T07:53:23Z</time></trkpt><trkpt lat="43.7145551015" lon="5.3332623281"><ele>173.66</ele><time>2017-04-09T07:53:40Z</time></trkpt><trkpt lat="43.7145093363" lon="5.3335136175"><ele>173.66</ele><time>2017-04-09T07:53:59Z</time></trkpt><trkpt lat="43.7144682650" lon="5.3337746300"><ele>173.66</ele><time>2017-04-09T07:54:18Z</time></trkpt><trkpt lat="43.7144596316" lon="5.3338593710"><ele>173.66</ele><time>2017-04-09T07:54:24Z</time></trkpt><trkpt lat="43.7144405209" lon="5.3339538351"><ele>173.66</ele><time>2017-04-09T07:54:30Z</time></trkpt><trkpt lat="43.7144176383" lon="5.3342129197"><ele>173.66</ele><time>2017-04-09T07:54:49Z</time></trkpt><trkpt lat="43.7144040596" lon="5.3343414981"><ele>173.66</ele><time>2017-04-09T07:54:58Z</time></trkpt><trkpt lat="43.7143891398" lon="5.3345663846"><ele>173.66</ele><time>2017-04-09T07:55:15Z</time></trkpt><trkpt lat="43.7143380102" lon="5.3348045982"><ele>173.17</ele><time>2017-04-09T07:55:33Z</time></trkpt><trkpt lat="43.7143370882" lon="5.3348191828"><ele>173.17</ele><time>2017-04-09T07:55:34Z</time></trkpt><trkpt lat="43.7143217493" lon="5.3350613359"><ele>173.17</ele><time>2017-04-09T07:55:51Z</time></trkpt><trkpt lat="43.7143297959" lon="5.3352824505"><ele>172.69</ele><time>2017-04-09T07:56:07Z</time></trkpt><trkpt lat="43.7143518403" lon="5.3354349174"><ele>172.69</ele><time>2017-04-09T07:56:18Z</time></trkpt><trkpt lat="43.7143896427" lon="5.3357357439"><ele>172.69</ele><time>2017-04-09T07:56:36Z</time></trkpt><trkpt lat="43.7144187279" lon="5.3358770628"><ele>172.69</ele><time>2017-04-09T07:56:46Z</time></trkpt><trkpt lat="43.7144665886" lon="5.3361094091"><ele>172.21</ele><time>2017-04-09T07:57:04Z</time></trkpt><trkpt lat="43.7145302072" lon="5.3363948967"><ele>171.73</ele><time>2017-04-09T07:57:22Z</time></trkpt><trkpt lat="43.7145702727" lon="5.3366418276"><ele>171.73</ele><time>2017-04-09T07:57:40Z</time></trkpt><trkpt lat="43.7146297842" lon="5.3369165864"><ele>171.25</ele><time>2017-04-09T07:57:58Z</time></trkpt><trkpt lat="43.7146548461" lon="5.3371633496"><ele>170.77</ele><time>2017-04-09T07:58:16Z</time></trkpt><trkpt lat="43.7146556005" lon="5.3372436482"><ele>170.77</ele><time>2017-04-09T07:58:21Z</time></trkpt><trkpt lat="43.7146980129" lon="5.3375019785"><ele>170.77</ele><time>2017-04-09T07:58:39Z</time></trkpt><trkpt lat="43.7146860268" lon="5.3378131986"><ele>170.77</ele><time>2017-04-09T07:58:58Z</time></trkpt><trkpt lat="43.7147213146" lon="5.3381191380"><ele>170.29</ele><time>2017-04-09T07:59:16Z</time></trkpt><trkpt lat="43.7147473823" lon="5.3383845929"><ele>170.29</ele><time>2017-04-09T07:59:33Z</time></trkpt><trkpt lat="43.7147615477" lon="5.3386194538"><ele>170.29</ele><time>2017-04-09T07:59:49Z</time></trkpt><trkpt lat="43.7147725280" lon="5.3388725873"><ele>169.81</ele><time>2017-04-09T08:00:06Z</time></trkpt><trkpt lat="43.7147865258" lon="5.3391916864"><ele>169.81</ele><time>2017-04-09T08:00:25Z</time></trkpt><trkpt lat="43.7147903815" lon="5.3394098673"><ele>169.81</ele><time>2017-04-09T08:00:41Z</time></trkpt><trkpt lat="43.7147738691" lon="5.3396947682"><ele>169.81</ele><time>2017-04-09T08:00:58Z</time></trkpt><trkpt lat="43.7147728633" lon="5.3399563674"><ele>169.33</ele><time>2017-04-09T08:01:15Z</time></trkpt><trkpt lat="43.7147234101" lon="5.3402481414"><ele>168.85</ele><time>2017-04-09T08:01:28Z</time></trkpt><trkpt lat="43.7147098314" lon="5.3403211478"><ele>168.37</ele><time>2017-04-09T08:01:41Z</time></trkpt><trkpt lat="43.7147070654" lon="5.3403741214"><ele>168.37</ele><time>2017-04-09T08:01:45Z</time></trkpt><trkpt lat="43.7146944087" lon="5.3404285200"><ele>168.37</ele><time>2017-04-09T08:01:48Z</time></trkpt><trkpt lat="43.7146231625" lon="5.3406695835"><ele>167.89</ele><time>2017-04-09T08:02:04Z</time></trkpt><trkpt lat="43.7146035489" lon="5.3407286759"><ele>167.89</ele><time>2017-04-09T08:02:09Z</time></trkpt><trkpt lat="43.7145421933" lon="5.3408303484"><ele>167.89</ele><time>2017-04-09T08:02:19Z</time></trkpt><trkpt lat="43.7144518364" lon="5.3410239704"><ele>168.85</ele><time>2017-04-09T08:02:34Z</time></trkpt><trkpt lat="43.7144429516" lon="5.3410731722"><ele>168.85</ele><time>2017-04-09T08:02:37Z</time></trkpt><trkpt lat="43.7143902294" lon="5.3411624394"><ele>169.33</ele><time>2017-04-09T08:02:45Z</time></trkpt><trkpt lat="43.7143264432" lon="5.3412753437"><ele>169.33</ele><time>2017-04-09T08:02:54Z</time></trkpt><trkpt lat="43.7143203244" lon="5.3412917722"><ele>169.33</ele><time>2017-04-09T08:02:55Z</time></trkpt><trkpt lat="43.7143130321" lon="5.3413054347"><ele>169.33</ele><time>2017-04-09T08:02:56Z</time></trkpt><trkpt lat="43.7143073324" lon="5.3413182590"><ele>169.33</ele><time>2017-04-09T08:02:57Z</time></trkpt><trkpt lat="43.7143017165" lon="5.3413313348"><ele>169.81</ele><time>2017-04-09T08:02:58Z</time></trkpt><trkpt lat="43.7142284587" lon="5.3415411338"><ele>169.81</ele><time>2017-04-09T08:03:14Z</time></trkpt><trkpt lat="43.7141329050" lon="5.3416869789"><ele>169.81</ele><time>2017-04-09T08:03:27Z</time></trkpt><trkpt lat="43.7140329089" lon="5.3418248612"><ele>169.81</ele><time>2017-04-09T08:03:43Z</time></trkpt><trkpt lat="43.7139563821" lon="5.3418800980"><ele>170.29</ele><time>2017-04-09T08:03:57Z</time></trkpt><trkpt lat="43.7139448151" lon="5.3418765776"><ele>170.29</ele><time>2017-04-09T08:03:58Z</time></trkpt><trkpt lat="43.7139327452" lon="5.3418713808"><ele>170.29</ele><time>2017-04-09T08:03:59Z</time></trkpt><trkpt lat="43.7139206752" lon="5.3418685310"><ele>170.29</ele><time>2017-04-09T08:04:00Z</time></trkpt><trkpt lat="43.7138232775" lon="5.3418003861"><ele>171.73</ele><time>2017-04-09T08:04:14Z</time></trkpt><trkpt lat="43.7137586530" lon="5.3417797666"><ele>173.17</ele><time>2017-04-09T08:04:23Z</time></trkpt><trkpt lat="43.7135924399" lon="5.3418345004"><ele>174.14</ele><time>2017-04-09T08:04:43Z</time></trkpt><trkpt lat="43.7135152426" lon="5.3418943472"><ele>175.10</ele><time>2017-04-09T08:04:51Z</time></trkpt><trkpt lat="43.7134061102" lon="5.3420093469"><ele>177.02</ele><time>2017-04-09T08:05:03Z</time></trkpt><trkpt lat="43.7133071199" lon="5.3421715368"><ele>179.42</ele><time>2017-04-09T08:05:17Z</time></trkpt><trkpt lat="43.7132239714" lon="5.3424250055"><ele>180.38</ele><time>2017-04-09T08:05:34Z</time></trkpt><trkpt lat="43.7131366320" lon="5.3425500635"><ele>181.35</ele><time>2017-04-09T08:05:53Z</time></trkpt><trkpt lat="43.7130233925" lon="5.3425958287"><ele>181.83</ele><time>2017-04-09T08:06:09Z</time></trkpt><trkpt lat="43.7128913775" lon="5.3425397538"><ele>183.27</ele><time>2017-04-09T08:06:25Z</time></trkpt><trkpt lat="43.7127621286" lon="5.3424133547"><ele>185.19</ele><time>2017-04-09T08:06:40Z</time></trkpt><trkpt lat="43.7126278505" lon="5.3423670866"><ele>187.11</ele><time>2017-04-09T08:06:59Z</time></trkpt><trkpt lat="43.7124868669" lon="5.3422785737"><ele>189.52</ele><time>2017-04-09T08:07:16Z</time></trkpt><trkpt lat="43.7123573665" lon="5.3423182201"><ele>190.96</ele><time>2017-04-09T08:07:32Z</time></trkpt><trkpt lat="43.7123087514" lon="5.3422601335"><ele>192.88</ele><time>2017-04-09T08:07:54Z</time></trkpt><trkpt lat="43.7122129463" lon="5.3421380091"><ele>195.28</ele><time>2017-04-09T08:08:13Z</time></trkpt><trkpt lat="43.7121837772" lon="5.3421332315"><ele>195.28</ele><time>2017-04-09T08:08:33Z</time></trkpt><trkpt lat="43.7121873815" lon="5.3421522584"><ele>195.28</ele><time>2017-04-09T08:08:52Z</time></trkpt><trkpt lat="43.7121626548" lon="5.3421784099"><ele>195.28</ele><time>2017-04-09T08:09:17Z</time></trkpt><trkpt lat="43.7121430412" lon="5.3421673458"><ele>195.28</ele><time>2017-04-09T08:09:31Z</time></trkpt><trkpt lat="43.7121481542" lon="5.3421803378"><ele>195.28</ele><time>2017-04-09T08:09:49Z</time></trkpt><trkpt lat="43.7121777423" lon="5.3421567008"><ele>195.77</ele><time>2017-04-09T08:10:17Z</time></trkpt><trkpt lat="43.7121931650" lon="5.3421336506"><ele>195.77</ele><time>2017-04-09T08:10:36Z</time></trkpt><trkpt lat="43.7122136168" lon="5.3421552759"><ele>195.77</ele><time>2017-04-09T08:10:56Z</time></trkpt><trkpt lat="43.7121960148" lon="5.3421414457"><ele>195.77</ele><time>2017-04-09T08:11:14Z</time></trkpt><trkpt lat="43.7121896446" lon="5.3421489894"><ele>195.77</ele><time>2017-04-09T08:11:41Z</time></trkpt><trkpt lat="43.7121827714" lon="5.3421385121"><ele>195.77</ele><time>2017-04-09T08:12:00Z</time></trkpt><trkpt lat="43.7121745571" lon="5.3421334829"><ele>195.77</ele><time>2017-04-09T08:12:17Z</time></trkpt><trkpt lat="43.7121670973" lon="5.3421479836"><ele>195.77</ele><time>2017-04-09T08:12:45Z</time></trkpt><trkpt lat="43.7121556140" lon="5.3421411943"><ele>195.77</ele><time>2017-04-09T08:13:02Z</time></trkpt><trkpt lat="43.7121759821" lon="5.3421518393"><ele>195.77</ele><time>2017-04-09T08:13:20Z</time></trkpt><trkpt lat="43.7121821009" lon="5.3421408590"><ele>195.77</ele><time>2017-04-09T08:13:31Z</time></trkpt><trkpt lat="43.7121851183" lon="5.3421697766"><ele>195.77</ele><time>2017-04-09T08:13:49Z</time></trkpt><trkpt lat="43.7121773232" lon="5.3421886358"><ele>196.25</ele><time>2017-04-09T08:13:59Z</time></trkpt><trkpt lat="43.7121073343" lon="5.3422396816"><ele>196.25</ele><time>2017-04-09T08:14:16Z</time></trkpt><trkpt lat="43.7119774148" lon="5.3422183916"><ele>197.21</ele><time>2017-04-09T08:14:31Z</time></trkpt><trkpt lat="43.7119205855" lon="5.3420778271"><ele>197.21</ele><time>2017-04-09T08:14:45Z</time></trkpt><trkpt lat="43.7119054142" lon="5.3419319820"><ele>198.17</ele><time>2017-04-09T08:14:59Z</time></trkpt><trkpt lat="43.7119131256" lon="5.3419264499"><ele>198.17</ele><time>2017-04-09T08:15:13Z</time></trkpt><trkpt lat="43.7118446454" lon="5.3417799342"><ele>199.13</ele><time>2017-04-09T08:15:28Z</time></trkpt><trkpt lat="43.7117268797" lon="5.3416580614"><ele>200.57</ele><time>2017-04-09T08:15:45Z</time></trkpt><trkpt lat="43.7116426416" lon="5.3418109473"><ele>202.01</ele><time>2017-04-09T08:16:02Z</time></trkpt><trkpt lat="43.7115646061" lon="5.3420154657"><ele>202.98</ele><time>2017-04-09T08:16:19Z</time></trkpt><trkpt lat="43.7114686333" lon="5.3421968501"><ele>202.98</ele><time>2017-04-09T08:16:36Z</time></trkpt><trkpt lat="43.7113506161" lon="5.3423633985"><ele>202.98</ele><time>2017-04-09T08:16:53Z</time></trkpt><trkpt lat="43.7112983130" lon="5.3423904721"><ele>202.98</ele><time>2017-04-09T08:16:59Z</time></trkpt><trkpt lat="43.7111420743" lon="5.3423503228"><ele>201.53</ele><time>2017-04-09T08:17:16Z</time></trkpt><trkpt lat="43.7110063713" lon="5.3422570322"><ele>200.09</ele><time>2017-04-09T08:17:32Z</time></trkpt><trkpt lat="43.7108575925" lon="5.3421785776"><ele>199.13</ele><time>2017-04-09T08:17:52Z</time></trkpt><trkpt lat="43.7106781360" lon="5.3421358299"><ele>200.09</ele><time>2017-04-09T08:18:09Z</time></trkpt><trkpt lat="43.7106331252" lon="5.3422432020"><ele>200.57</ele><time>2017-04-09T08:18:26Z</time></trkpt><trkpt lat="43.7105369009" lon="5.3423135262"><ele>200.57</ele><time>2017-04-09T08:18:42Z</time></trkpt><trkpt lat="43.7104417663" lon="5.3424082417"><ele>201.05</ele><time>2017-04-09T08:18:56Z</time></trkpt><trkpt lat="43.7103460450" lon="5.3425133508"><ele>201.05</ele><time>2017-04-09T08:19:13Z</time></trkpt><trkpt lat="43.7102933228" lon="5.3425589483"><ele>201.05</ele><time>2017-04-09T08:19:27Z</time></trkpt><trkpt lat="43.7102469709" lon="5.3425867762"><ele>202.01</ele><time>2017-04-09T08:19:43Z</time></trkpt><trkpt lat="43.7101856153" lon="5.3426115029"><ele>202.98</ele><time>2017-04-09T08:19:57Z</time></trkpt><trkpt lat="43.7100426201" lon="5.3427989222"><ele>203.46</ele><time>2017-04-09T08:20:16Z</time></trkpt><trkpt lat="43.7099099346" lon="5.3428666480"><ele>204.42</ele><time>2017-04-09T08:20:30Z</time></trkpt><trkpt lat="43.7097118702" lon="5.3429384809"><ele>204.90</ele><time>2017-04-09T08:20:48Z</time></trkpt><trkpt lat="43.7095330004" lon="5.3429898620"><ele>204.90</ele><time>2017-04-09T08:21:05Z</time></trkpt><trkpt lat="43.7094781827" lon="5.3431257326"><ele>205.38</ele><time>2017-04-09T08:21:20Z</time></trkpt><trkpt lat="43.7094491813" lon="5.3433459252"><ele>204.42</ele><time>2017-04-09T08:21:36Z</time></trkpt><trkpt lat="43.7094802782" lon="5.3435078636"><ele>204.42</ele><time>2017-04-09T08:21:51Z</time></trkpt><trkpt lat="43.7095498480" lon="5.3436471708"><ele>203.46</ele><time>2017-04-09T08:22:08Z</time></trkpt><trkpt lat="43.7095581461" lon="5.3436659463"><ele>203.46</ele><time>2017-04-09T08:22:11Z</time></trkpt><trkpt lat="43.7095853034" lon="5.3439595643"><ele>202.49</ele><time>2017-04-09T08:22:30Z</time></trkpt><trkpt lat="43.7095872313" lon="5.3442684375"><ele>202.49</ele><time>2017-04-09T08:22:49Z</time></trkpt><trkpt lat="43.7095959485" lon="5.3443328105"><ele>202.49</ele><time>2017-04-09T08:22:53Z</time></trkpt><trkpt lat="43.7096065935" lon="5.3445260972"><ele>201.53</ele><time>2017-04-09T08:23:09Z</time></trkpt><trkpt lat="43.7095787656" lon="5.3447482176"><ele>201.53</ele><time>2017-04-09T08:23:27Z</time></trkpt><trkpt lat="43.7095534522" lon="5.3449873533"><ele>201.53</ele><time>2017-04-09T08:23:46Z</time></trkpt><trkpt lat="43.7095138896" lon="5.3451561648"><ele>202.98</ele><time>2017-04-09T08:24:01Z</time></trkpt><trkpt lat="43.7094575632" lon="5.3453380521"><ele>203.46</ele><time>2017-04-09T08:24:18Z</time></trkpt><trkpt lat="43.7093916815" lon="5.3455533832"><ele>204.42</ele><time>2017-04-09T08:24:35Z</time></trkpt><trkpt lat="43.7093330920" lon="5.3457898367"><ele>205.38</ele><time>2017-04-09T08:24:52Z</time></trkpt><trkpt lat="43.7092702277" lon="5.3459946904"><ele>205.86</ele><time>2017-04-09T08:25:11Z</time></trkpt><trkpt lat="43.7092350237" lon="5.3460754920"><ele>205.86</ele><time>2017-04-09T08:25:19Z</time></trkpt><trkpt lat="43.7090749294" lon="5.3462513443"><ele>206.82</ele><time>2017-04-09T08:25:37Z</time></trkpt><trkpt lat="43.7089669704" lon="5.3463078383"><ele>206.82</ele><time>2017-04-09T08:25:51Z</time></trkpt><trkpt lat="43.7087715883" lon="5.3463636618"><ele>206.82</ele><time>2017-04-09T08:26:11Z</time></trkpt><trkpt lat="43.7086895294" lon="5.3465372510"><ele>204.90</ele><time>2017-04-09T08:26:28Z</time></trkpt><trkpt lat="43.7086301856" lon="5.3466772288"><ele>204.42</ele><time>2017-04-09T08:26:40Z</time></trkpt><trkpt lat="43.7084940635" lon="5.3469392471"><ele>202.49</ele><time>2017-04-09T08:26:59Z</time></trkpt><trkpt lat="43.7084757071" lon="5.3470990900"><ele>200.57</ele><time>2017-04-09T08:27:14Z</time></trkpt><trkpt lat="43.7084712647" lon="5.3473217972"><ele>199.13</ele><time>2017-04-09T08:27:28Z</time></trkpt><trkpt lat="43.7084824964" lon="5.3474284150"><ele>197.69</ele><time>2017-04-09T08:27:37Z</time></trkpt><trkpt lat="43.7084625475" lon="5.3476587497"><ele>195.77</ele><time>2017-04-09T08:27:53Z</time></trkpt><trkpt lat="43.7084457837" lon="5.3477075323"><ele>195.28</ele><time>2017-04-09T08:27:56Z</time></trkpt><trkpt lat="43.7083226535" lon="5.3479652759"><ele>194.32</ele><time>2017-04-09T08:28:14Z</time></trkpt><trkpt lat="43.7082331348" lon="5.3481096961"><ele>193.84</ele><time>2017-04-09T08:28:28Z</time></trkpt><trkpt lat="43.7081114296" lon="5.3482859675"><ele>193.84</ele><time>2017-04-09T08:28:46Z</time></trkpt><trkpt lat="43.7079586275" lon="5.3484186530"><ele>193.84</ele><time>2017-04-09T08:29:03Z</time></trkpt><trkpt lat="43.7078383472" lon="5.3485437110"><ele>193.84</ele><time>2017-04-09T08:29:19Z</time></trkpt><trkpt lat="43.7077106070" lon="5.3487561923"><ele>193.84</ele><time>2017-04-09T08:29:37Z</time></trkpt><trkpt lat="43.7076583039" lon="5.3488399275"><ele>193.84</ele><time>2017-04-09T08:29:44Z</time></trkpt><trkpt lat="43.7074975390" lon="5.3490363155"><ele>193.84</ele><time>2017-04-09T08:30:03Z</time></trkpt><trkpt lat="43.7074750755" lon="5.3490655683"><ele>195.28</ele><time>2017-04-09T08:30:06Z</time></trkpt><trkpt lat="43.7073786836" lon="5.3492119163"><ele>195.28</ele><time>2017-04-09T08:30:21Z</time></trkpt><trkpt lat="43.7073291466" lon="5.3493628744"><ele>195.28</ele><time>2017-04-09T08:30:38Z</time></trkpt><trkpt lat="43.7072389573" lon="5.3496351186"><ele>192.88</ele><time>2017-04-09T08:30:56Z</time></trkpt><trkpt lat="43.7072143145" lon="5.3498593345"><ele>190.48</ele><time>2017-04-09T08:31:13Z</time></trkpt><trkpt lat="43.7071823794" lon="5.3499510325"><ele>190.00</ele><time>2017-04-09T08:31:20Z</time></trkpt><trkpt lat="43.7071506958" lon="5.3500282299"><ele>189.04</ele><time>2017-04-09T08:31:39Z</time></trkpt><trkpt lat="43.7072196789" lon="5.3501419723"><ele>188.08</ele><time>2017-04-09T08:32:04Z</time></trkpt><trkpt lat="43.7072693836" lon="5.3501891624"><ele>188.08</ele><time>2017-04-09T08:32:21Z</time></trkpt><trkpt lat="43.7072605826" lon="5.3502225224"><ele>188.08</ele><time>2017-04-09T08:32:44Z</time></trkpt><trkpt lat="43.7072595768" lon="5.3502449859"><ele>187.11</ele><time>2017-04-09T08:33:05Z</time></trkpt><trkpt lat="43.7072838005" lon="5.3502538707"><ele>186.15</ele><time>2017-04-09T08:33:29Z</time></trkpt><trkpt lat="43.7073339242" lon="5.3502618335"><ele>184.23</ele><time>2017-04-09T08:33:38Z</time></trkpt><trkpt lat="43.7073038332" lon="5.3502880689"><ele>184.23</ele><time>2017-04-09T08:33:50Z</time></trkpt><trkpt lat="43.7072662823" lon="5.3503015637"><ele>184.23</ele><time>2017-04-09T08:33:54Z</time></trkpt><trkpt lat="43.7072529551" lon="5.3503155615"><ele>183.75</ele><time>2017-04-09T08:34:08Z</time></trkpt><trkpt lat="43.7072646059" lon="5.3503073473"><ele>183.75</ele><time>2017-04-09T08:34:33Z</time></trkpt><trkpt lat="43.7072334252" lon="5.3503215965"><ele>183.75</ele><time>2017-04-09T08:34:56Z</time></trkpt><trkpt lat="43.7072553020" lon="5.3503378574"><ele>183.75</ele><time>2017-04-09T08:35:21Z</time></trkpt><trkpt lat="43.7072784360" lon="5.3503354266"><ele>183.75</ele><time>2017-04-09T08:35:45Z</time></trkpt><trkpt lat="43.7071864866" lon="5.3503858857"><ele>183.75</ele><time>2017-04-09T08:36:01Z</time></trkpt><trkpt lat="43.7070054375" lon="5.3504675254"><ele>183.75</ele><time>2017-04-09T08:36:17Z</time></trkpt><trkpt lat="43.7068139948" lon="5.3505827766"><ele>183.75</ele><time>2017-04-09T08:36:35Z</time></trkpt><trkpt lat="43.7067127414" lon="5.3505849559"><ele>183.75</ele><time>2017-04-09T08:36:44Z</time></trkpt><trkpt lat="43.7066207919" lon="5.3505727183"><ele>183.75</ele><time>2017-04-09T08:36:52Z</time></trkpt><trkpt lat="43.7064748630" lon="5.3504464868"><ele>183.75</ele><time>2017-04-09T08:37:05Z</time></trkpt><trkpt lat="43.7064073049" lon="5.3503546212"><ele>183.75</ele><time>2017-04-09T08:37:19Z</time></trkpt><trkpt lat="43.7062674947" lon="5.3501255438"><ele>183.75</ele><time>2017-04-09T08:37:39Z</time></trkpt><trkpt lat="43.7061086576" lon="5.3499558102"><ele>183.75</ele><time>2017-04-09T08:37:58Z</time></trkpt><trkpt lat="43.7059395947" lon="5.3498030920"><ele>183.75</ele><time>2017-04-09T08:38:16Z</time></trkpt><trkpt lat="43.7057753094" lon="5.3496366274"><ele>183.75</ele><time>2017-04-09T08:38:35Z</time></trkpt><trkpt lat="43.7056361698" lon="5.3494989965"><ele>183.75</ele><time>2017-04-09T08:38:51Z</time></trkpt><trkpt lat="43.7054313160" lon="5.3492935561"><ele>183.75</ele><time>2017-04-09T08:39:13Z</time></trkpt><trkpt lat="43.7052987143" lon="5.3491873574"><ele>183.75</ele><time>2017-04-09T08:39:29Z</time></trkpt><trkpt lat="43.7051199283" lon="5.3490763810"><ele>183.75</ele><time>2017-04-09T08:39:46Z</time></trkpt><trkpt lat="43.7049837224" lon="5.3489973396"><ele>183.75</ele><time>2017-04-09T08:40:01Z</time></trkpt><trkpt lat="43.7047955487" lon="5.3488897160"><ele>184.23</ele><time>2017-04-09T08:40:19Z</time></trkpt><trkpt lat="43.7045806367" lon="5.3487590421"><ele>184.23</ele><time>2017-04-09T08:40:36Z</time></trkpt><trkpt lat="43.7043190375" lon="5.3485760652"><ele>184.23</ele><time>2017-04-09T08:40:49Z</time></trkpt><trkpt lat="43.7041515671" lon="5.3484667651"><ele>184.23</ele><time>2017-04-09T08:41:02Z</time></trkpt><trkpt lat="43.7041375693" lon="5.3484619875"><ele>184.23</ele><time>2017-04-09T08:41:03Z</time></trkpt><trkpt lat="43.7041226495" lon="5.3484533541"><ele>184.23</ele><time>2017-04-09T08:41:04Z</time></trkpt><trkpt lat="43.7041064724" lon="5.3484447207"><ele>184.23</ele><time>2017-04-09T08:41:05Z</time></trkpt><trkpt lat="43.7040924747" lon="5.3484390210"><ele>184.23</ele><time>2017-04-09T08:41:06Z</time></trkpt><trkpt lat="43.7040789798" lon="5.3484329022"><ele>184.23</ele><time>2017-04-09T08:41:07Z</time></trkpt><trkpt lat="43.7038932368" lon="5.3483933397"><ele>184.23</ele><time>2017-04-09T08:41:23Z</time></trkpt><trkpt lat="43.7038369104" lon="5.3484226763"><ele>184.23</ele><time>2017-04-09T08:41:36Z</time></trkpt><trkpt lat="43.7038499862" lon="5.3483306430"><ele>184.23</ele><time>2017-04-09T08:41:52Z</time></trkpt><trkpt lat="43.7038007844" lon="5.3482971992"><ele>184.23</ele><time>2017-04-09T08:41:59Z</time></trkpt><trkpt lat="43.7037006207" lon="5.3482491709"><ele>185.67</ele><time>2017-04-09T08:42:10Z</time></trkpt><trkpt lat="43.7035784964" lon="5.3481590655"><ele>186.15</ele><time>2017-04-09T08:42:22Z</time></trkpt><trkpt lat="43.7035686895" lon="5.3481524438"><ele>186.63</ele><time>2017-04-09T08:42:23Z</time></trkpt><trkpt lat="43.7034234311" lon="5.3480608296"><ele>187.59</ele><time>2017-04-09T08:42:41Z</time></trkpt><trkpt lat="43.7033308949" lon="5.3479801118"><ele>188.08</ele><time>2017-04-09T08:42:55Z</time></trkpt><trkpt lat="43.7033134606" lon="5.3479853924"><ele>188.08</ele><time>2017-04-09T08:42:56Z</time></trkpt><trkpt lat="43.7031091098" lon="5.3481268790"><ele>188.08</ele><time>2017-04-09T08:43:08Z</time></trkpt><trkpt lat="43.7030901667" lon="5.3481562994"><ele>188.08</ele><time>2017-04-09T08:43:20Z</time></trkpt><trkpt lat="43.7029532902" lon="5.3483128734"><ele>188.08</ele><time>2017-04-09T08:43:36Z</time></trkpt><trkpt lat="43.7027716544" lon="5.3484847862"><ele>188.08</ele><time>2017-04-09T08:43:55Z</time></trkpt><trkpt lat="43.7026299164" lon="5.3485660069"><ele>188.08</ele><time>2017-04-09T08:44:11Z</time></trkpt><trkpt lat="43.7025274895" lon="5.3486765642"><ele>188.08</ele><time>2017-04-09T08:44:26Z</time></trkpt><trkpt lat="43.7025350332" lon="5.3487276938"><ele>188.08</ele><time>2017-04-09T08:44:31Z</time></trkpt><trkpt lat="43.7025775295" lon="5.3487904742"><ele>188.08</ele><time>2017-04-09T08:44:51Z</time></trkpt><trkpt lat="43.7026774418" lon="5.3488206491"><ele>187.11</ele><time>2017-04-09T08:45:02Z</time></trkpt><trkpt lat="43.7027854007" lon="5.3488571104"><ele>187.11</ele><time>2017-04-09T08:45:14Z</time></trkpt><trkpt lat="43.7029275578" lon="5.3489975072"><ele>186.63</ele><time>2017-04-09T08:45:29Z</time></trkpt><trkpt lat="43.7030822039" lon="5.3491130099"><ele>186.63</ele><time>2017-04-09T08:45:47Z</time></trkpt><trkpt lat="43.7031952757" lon="5.3491537459"><ele>186.15</ele><time>2017-04-09T08:46:01Z</time></trkpt><trkpt lat="43.7033080962" lon="5.3492220584"><ele>185.19</ele><time>2017-04-09T08:46:17Z</time></trkpt><trkpt lat="43.7033447251" lon="5.3492325358"><ele>185.19</ele><time>2017-04-09T08:46:32Z</time></trkpt><trkpt lat="43.7033376005" lon="5.3492387384"><ele>185.19</ele><time>2017-04-09T08:46:55Z</time></trkpt><trkpt lat="43.7033808511" lon="5.3493790515"><ele>185.19</ele><time>2017-04-09T08:47:09Z</time></trkpt><trkpt lat="43.7034590542" lon="5.3496134933"><ele>185.19</ele><time>2017-04-09T08:47:26Z</time></trkpt><trkpt lat="43.7035266124" lon="5.3497139085"><ele>185.19</ele><time>2017-04-09T08:47:36Z</time></trkpt><trkpt lat="43.7036535982" lon="5.3499217797"><ele>185.19</ele><time>2017-04-09T08:47:54Z</time></trkpt><trkpt lat="43.7037898041" lon="5.3501476720"><ele>185.19</ele><time>2017-04-09T08:48:13Z</time></trkpt><trkpt lat="43.7039467134" lon="5.3502976242"><ele>184.71</ele><time>2017-04-09T08:48:29Z</time></trkpt><trkpt lat="43.7039537542" lon="5.3503082693"><ele>184.71</ele><time>2017-04-09T08:48:31Z</time></trkpt><trkpt lat="43.7039768044" lon="5.3503599856"><ele>184.71</ele><time>2017-04-09T08:48:33Z</time></trkpt><trkpt lat="43.7040670775" lon="5.3504424635"><ele>184.71</ele><time>2017-04-09T08:48:45Z</time></trkpt><trkpt lat="43.7041550875" lon="5.3505887277"><ele>184.71</ele><time>2017-04-09T08:49:00Z</time></trkpt><trkpt lat="43.7043126673" lon="5.3507660050"><ele>184.71</ele><time>2017-04-09T08:49:21Z</time></trkpt><trkpt lat="43.7044805568" lon="5.3509585373"><ele>184.71</ele><time>2017-04-09T08:49:42Z</time></trkpt><trkpt lat="43.7046305090" lon="5.3511632234"><ele>184.71</ele><time>2017-04-09T08:50:02Z</time></trkpt><trkpt lat="43.7047761027" lon="5.3512683325"><ele>184.23</ele><time>2017-04-09T08:50:18Z</time></trkpt><trkpt lat="43.7049059384" lon="5.3513897024"><ele>184.23</ele><time>2017-04-09T08:50:34Z</time></trkpt><trkpt lat="43.7049596664" lon="5.3514579311"><ele>184.23</ele><time>2017-04-09T08:50:41Z</time></trkpt><trkpt lat="43.7049687188" lon="5.3514669836"><ele>184.23</ele><time>2017-04-09T08:50:42Z</time></trkpt><trkpt lat="43.7050978839" lon="5.3515881859"><ele>184.23</ele><time>2017-04-09T08:50:56Z</time></trkpt><trkpt lat="43.7051763386" lon="5.3516677301"><ele>184.23</ele><time>2017-04-09T08:51:06Z</time></trkpt><trkpt lat="43.7051854748" lon="5.3516741842"><ele>184.23</ele><time>2017-04-09T08:51:07Z</time></trkpt><trkpt lat="43.7051959522" lon="5.3516790457"><ele>184.23</ele><time>2017-04-09T08:51:08Z</time></trkpt><trkpt lat="43.7052039988" lon="5.3516890202"><ele>184.23</ele><time>2017-04-09T08:51:09Z</time></trkpt><trkpt lat="43.7052250374" lon="5.3517075442"><ele>184.23</ele><time>2017-04-09T08:51:12Z</time></trkpt><trkpt lat="43.7052355148" lon="5.3517146688"><ele>184.23</ele><time>2017-04-09T08:51:13Z</time></trkpt><trkpt lat="43.7052471656" lon="5.3517243918"><ele>184.23</ele><time>2017-04-09T08:51:14Z</time></trkpt><trkpt lat="43.7053549569" lon="5.3517894354"><ele>184.23</ele><time>2017-04-09T08:51:24Z</time></trkpt><trkpt lat="43.7053810246" lon="5.3518157545"><ele>184.23</ele><time>2017-04-09T08:51:28Z</time></trkpt><trkpt lat="43.7053929269" lon="5.3518232983"><ele>184.23</ele><time>2017-04-09T08:51:29Z</time></trkpt><trkpt lat="43.7054049969" lon="5.3518310934"><ele>184.23</ele><time>2017-04-09T08:51:30Z</time></trkpt><trkpt lat="43.7054178212" lon="5.3518387210"><ele>184.23</ele><time>2017-04-09T08:51:31Z</time></trkpt><trkpt lat="43.7054319028" lon="5.3518562391"><ele>184.23</ele><time>2017-04-09T08:51:33Z</time></trkpt><trkpt lat="43.7055755686" lon="5.3519843146"><ele>184.23</ele><time>2017-04-09T08:51:50Z</time></trkpt><trkpt lat="43.7057064101" lon="5.3520956263"><ele>184.23</ele><time>2017-04-09T08:52:04Z</time></trkpt><trkpt lat="43.7058218289" lon="5.3523328342"><ele>184.23</ele><time>2017-04-09T08:52:22Z</time></trkpt><trkpt lat="43.7058375031" lon="5.3526031505"><ele>184.23</ele><time>2017-04-09T08:52:40Z</time></trkpt><trkpt lat="43.7057730462" lon="5.3527881391"><ele>184.23</ele><time>2017-04-09T08:52:53Z</time></trkpt><trkpt lat="43.7056929991" lon="5.3530239221"><ele>184.23</ele><time>2017-04-09T08:53:10Z</time></trkpt><trkpt lat="43.7056132033" lon="5.3532639798"><ele>184.23</ele><time>2017-04-09T08:53:27Z</time></trkpt><trkpt lat="43.7055179849" lon="5.3534839209"><ele>184.23</ele><time>2017-04-09T08:53:43Z</time></trkpt><trkpt lat="43.7053997163" lon="5.3537501302"><ele>184.23</ele><time>2017-04-09T08:54:04Z</time></trkpt><trkpt lat="43.7053178251" lon="5.3539767768"><ele>184.23</ele><time>2017-04-09T08:54:21Z</time></trkpt><trkpt lat="43.7052832078" lon="5.3542187624"><ele>185.67</ele><time>2017-04-09T08:54:37Z</time></trkpt><trkpt lat="43.7052486744" lon="5.3544771764"><ele>185.67</ele><time>2017-04-09T08:54:54Z</time></trkpt><trkpt lat="43.7051504385" lon="5.3546772525"><ele>186.15</ele><time>2017-04-09T08:55:10Z</time></trkpt><trkpt lat="43.7050651945" lon="5.3548998758"><ele>184.71</ele><time>2017-04-09T08:55:27Z</time></trkpt><trkpt lat="43.7049868237" lon="5.3550904803"><ele>184.71</ele><time>2017-04-09T08:55:42Z</time></trkpt><trkpt lat="43.7048905157" lon="5.3552203160"><ele>184.71</ele><time>2017-04-09T08:55:54Z</time></trkpt><trkpt lat="43.7047679722" lon="5.3554743715"><ele>184.71</ele><time>2017-04-09T08:56:10Z</time></trkpt><trkpt lat="43.7047441676" lon="5.3557048738"><ele>185.67</ele><time>2017-04-09T08:56:22Z</time></trkpt><trkpt lat="43.7047604285" lon="5.3558299318"><ele>185.67</ele><time>2017-04-09T08:56:41Z</time></trkpt><trkpt lat="43.7047448382" lon="5.3559787944"><ele>185.67</ele><time>2017-04-09T08:56:59Z</time></trkpt><trkpt lat="43.7047392223" lon="5.3561811335"><ele>185.67</ele><time>2017-04-09T08:57:14Z</time></trkpt><trkpt lat="43.7047189381" lon="5.3563808743"><ele>186.63</ele><time>2017-04-09T08:57:29Z</time></trkpt><trkpt lat="43.7047005817" lon="5.3564516176"><ele>187.59</ele><time>2017-04-09T08:57:44Z</time></trkpt><trkpt lat="43.7047027610" lon="5.3564571496"><ele>187.11</ele><time>2017-04-09T08:58:06Z</time></trkpt><trkpt lat="43.7047082931" lon="5.3564691357"><ele>187.11</ele><time>2017-04-09T08:58:33Z</time></trkpt><trkpt lat="43.7047107238" lon="5.3564730752"><ele>187.11</ele><time>2017-04-09T08:58:58Z</time></trkpt><trkpt lat="43.7046559900" lon="5.3563875798"><ele>187.11</ele><time>2017-04-09T08:59:25Z</time></trkpt><trkpt lat="43.7046010885" lon="5.3562166728"><ele>187.11</ele><time>2017-04-09T08:59:42Z</time></trkpt><trkpt lat="43.7045473605" lon="5.3560554050"><ele>187.11</ele><time>2017-04-09T08:59:56Z</time></trkpt><trkpt lat="43.7045164313" lon="5.3558846656"><ele>187.59</ele><time>2017-04-09T09:00:12Z</time></trkpt><trkpt lat="43.7045067921" lon="5.3556639701"><ele>187.11</ele><time>2017-04-09T09:00:29Z</time></trkpt><trkpt lat="43.7045029365" lon="5.3556543309"><ele>187.11</ele><time>2017-04-09T09:00:30Z</time></trkpt><trkpt lat="43.7044160999" lon="5.3555606212"><ele>187.59</ele><time>2017-04-09T09:00:45Z</time></trkpt><trkpt lat="43.7043729331" lon="5.3556052130"><ele>187.59</ele><time>2017-04-09T09:00:54Z</time></trkpt><trkpt lat="43.7042728532" lon="5.3556637187"><ele>186.15</ele><time>2017-04-09T09:01:06Z</time></trkpt><trkpt lat="43.7041715160" lon="5.3557154350"><ele>186.15</ele><time>2017-04-09T09:01:24Z</time></trkpt><trkpt lat="43.7039925624" lon="5.3557835799"><ele>186.15</ele><time>2017-04-09T09:01:41Z</time></trkpt><trkpt lat="43.7038545962" lon="5.3558875993"><ele>186.15</ele><time>2017-04-09T09:01:55Z</time></trkpt><trkpt lat="43.7036727928" lon="5.3559427522"><ele>186.15</ele><time>2017-04-09T09:02:12Z</time></trkpt><trkpt lat="43.7036439590" lon="5.3559508827"><ele>187.59</ele><time>2017-04-09T09:02:15Z</time></trkpt><trkpt lat="43.7034857087" lon="5.3559958935"><ele>187.59</ele><time>2017-04-09T09:02:31Z</time></trkpt><trkpt lat="43.7033583038" lon="5.3560148366"><ele>188.08</ele><time>2017-04-09T09:02:45Z</time></trkpt><trkpt lat="43.7032677792" lon="5.3559532296"><ele>189.04</ele><time>2017-04-09T09:03:00Z</time></trkpt><trkpt lat="43.7032231037" lon="5.3558758646"><ele>190.48</ele><time>2017-04-09T09:03:13Z</time></trkpt><trkpt lat="43.7032082677" lon="5.3557999246"><ele>193.84</ele><time>2017-04-09T09:03:29Z</time></trkpt><trkpt lat="43.7031904142" lon="5.3556884453"><ele>196.25</ele><time>2017-04-09T09:03:43Z</time></trkpt><trkpt lat="43.7031614967" lon="5.3555864375"><ele>198.65</ele><time>2017-04-09T09:03:59Z</time></trkpt><trkpt lat="43.7031505164" lon="5.3554394189"><ele>201.53</ele><time>2017-04-09T09:04:16Z</time></trkpt><trkpt lat="43.7031552941" lon="5.3552504070"><ele>202.98</ele><time>2017-04-09T09:04:35Z</time></trkpt><trkpt lat="43.7031286396" lon="5.3551314678"><ele>204.42</ele><time>2017-04-09T09:04:52Z</time></trkpt><trkpt lat="43.7030848023" lon="5.3549862932"><ele>206.34</ele><time>2017-04-09T09:05:06Z</time></trkpt><trkpt lat="43.7030692119" lon="5.3549355827"><ele>206.34</ele><time>2017-04-09T09:05:10Z</time></trkpt><trkpt lat="43.7030432280" lon="5.3547815233"><ele>207.30</ele><time>2017-04-09T09:05:25Z</time></trkpt><trkpt lat="43.7030478381" lon="5.3546543699"><ele>207.30</ele><time>2017-04-09T09:05:41Z</time></trkpt><trkpt lat="43.7030487601" lon="5.3546418808"><ele>207.30</ele><time>2017-04-09T09:05:48Z</time></trkpt><trkpt lat="43.7030706368" lon="5.3546211775"><ele>207.30</ele><time>2017-04-09T09:06:00Z</time></trkpt><trkpt lat="43.7030740734" lon="5.3546052519"><ele>207.30</ele><time>2017-04-09T09:06:32Z</time></trkpt><trkpt lat="43.7030584831" lon="5.3546197526"><ele>206.82</ele><time>2017-04-09T09:07:00Z</time></trkpt><trkpt lat="43.7030910049" lon="5.3546151426"><ele>206.34</ele><time>2017-04-09T09:07:26Z</time></trkpt><trkpt lat="43.7030803598" lon="5.3546226863"><ele>207.78</ele><time>2017-04-09T09:07:37Z</time></trkpt><trkpt lat="43.7030530348" lon="5.3546151426"><ele>207.78</ele><time>2017-04-09T09:08:07Z</time></trkpt><trkpt lat="43.7030441500" lon="5.3546369355"><ele>207.78</ele><time>2017-04-09T09:08:28Z</time></trkpt><trkpt lat="43.7030595727" lon="5.3546004742"><ele>207.78</ele><time>2017-04-09T09:08:59Z</time></trkpt><trkpt lat="43.7030492630" lon="5.3546190821"><ele>207.78</ele><time>2017-04-09T09:09:25Z</time></trkpt><trkpt lat="43.7030436471" lon="5.3546318226"><ele>208.26</ele><time>2017-04-09T09:09:48Z</time></trkpt><trkpt lat="43.7030284759" lon="5.3546653502"><ele>208.26</ele><time>2017-04-09T09:10:16Z</time></trkpt><trkpt lat="43.7030413840" lon="5.3546654340"><ele>208.26</ele><time>2017-04-09T09:10:43Z</time></trkpt><trkpt lat="43.7030393723" lon="5.3546373546"><ele>208.26</ele><time>2017-04-09T09:11:11Z</time></trkpt><trkpt lat="43.7030236144" lon="5.3546545375"><ele>207.78</ele><time>2017-04-09T09:11:37Z</time></trkpt><trkpt lat="43.7030185014" lon="5.3546208423"><ele>207.78</ele><time>2017-04-09T09:11:53Z</time></trkpt><trkpt lat="43.7030232791" lon="5.3546433896"><ele>207.78</ele><time>2017-04-09T09:12:08Z</time></trkpt><trkpt lat="43.7030205969" lon="5.3546918370"><ele>207.78</ele><time>2017-04-09T09:12:22Z</time></trkpt><trkpt lat="43.7030269671" lon="5.3547139652"><ele>207.78</ele><time>2017-04-09T09:12:55Z</time></trkpt><trkpt lat="43.7030443177" lon="5.3546941001"><ele>207.78</ele><time>2017-04-09T09:13:29Z</time></trkpt><trkpt lat="43.7030122988" lon="5.3547082655"><ele>207.78</ele><time>2017-04-09T09:14:05Z</time></trkpt><trkpt lat="43.7029787712" lon="5.3547391947"><ele>207.78</ele><time>2017-04-09T09:14:35Z</time></trkpt><trkpt lat="43.7030221056" lon="5.3547040746"><ele>207.78</ele><time>2017-04-09T09:15:04Z</time></trkpt><trkpt lat="43.7030402105" lon="5.3546812758"><ele>207.78</ele><time>2017-04-09T09:15:30Z</time></trkpt><trkpt lat="43.7030306552" lon="5.3546731453"><ele>207.78</ele><time>2017-04-09T09:16:01Z</time></trkpt><trkpt lat="43.7030387018" lon="5.3546756599"><ele>207.78</ele><time>2017-04-09T09:16:17Z</time></trkpt><trkpt lat="43.7030349299" lon="5.3546806891"><ele>207.78</ele><time>2017-04-09T09:16:43Z</time></trkpt><trkpt lat="43.7030532025" lon="5.3546895739"><ele>207.78</ele><time>2017-04-09T09:17:14Z</time></trkpt><trkpt lat="43.7030961178" lon="5.3546189982"><ele>207.78</ele><time>2017-04-09T09:17:31Z</time></trkpt><trkpt lat="43.7031327467" lon="5.3544711415"><ele>207.30</ele><time>2017-04-09T09:17:46Z</time></trkpt><trkpt lat="43.7031521928" lon="5.3544170782"><ele>208.74</ele><time>2017-04-09T09:17:52Z</time></trkpt><trkpt lat="43.7032263726" lon="5.3542666230"><ele>209.22</ele><time>2017-04-09T09:18:07Z</time></trkpt><trkpt lat="43.7032603193" lon="5.3542621806"><ele>209.70</ele><time>2017-04-09T09:18:21Z</time></trkpt><trkpt lat="43.7032846268" lon="5.3541437443"><ele>210.67</ele><time>2017-04-09T09:18:39Z</time></trkpt><trkpt lat="43.7033913285" lon="5.3539569117"><ele>212.59</ele><time>2017-04-09T09:18:57Z</time></trkpt><trkpt lat="43.7035168894" lon="5.3538029362"><ele>214.51</ele><time>2017-04-09T09:19:15Z</time></trkpt><trkpt lat="43.7036383431" lon="5.3536818177"><ele>216.43</ele><time>2017-04-09T09:19:31Z</time></trkpt><trkpt lat="43.7037318014" lon="5.3535413370"><ele>217.88</ele><time>2017-04-09T09:19:47Z</time></trkpt><trkpt lat="43.7038598768" lon="5.3533990122"><ele>219.80</ele><time>2017-04-09T09:20:06Z</time></trkpt><trkpt lat="43.7038801610" lon="5.3533949889"><ele>220.28</ele><time>2017-04-09T09:20:24Z</time></trkpt><trkpt lat="43.7039396726" lon="5.3532458749"><ele>221.72</ele><time>2017-04-09T09:20:40Z</time></trkpt><trkpt lat="43.7040528283" lon="5.3531137761"><ele>223.16</ele><time>2017-04-09T09:20:55Z</time></trkpt><trkpt lat="43.7040721066" lon="5.3531031311"><ele>223.16</ele><time>2017-04-09T09:20:57Z</time></trkpt><trkpt lat="43.7042187061" lon="5.3529739659"><ele>225.09</ele><time>2017-04-09T09:21:16Z</time></trkpt><trkpt lat="43.7043583486" lon="5.3528270312"><ele>226.53</ele><time>2017-04-09T09:21:35Z</time></trkpt><trkpt lat="43.7043704186" lon="5.3527598083"><ele>227.01</ele><time>2017-04-09T09:21:43Z</time></trkpt><trkpt lat="43.7042974122" lon="5.3526094370"><ele>229.41</ele><time>2017-04-09T09:21:59Z</time></trkpt><trkpt lat="43.7041523214" lon="5.3525827825"><ele>230.37</ele><time>2017-04-09T09:22:15Z</time></trkpt><trkpt lat="43.7039662432" lon="5.3525777534"><ele>232.78</ele><time>2017-04-09T09:22:35Z</time></trkpt><trkpt lat="43.7037854455" lon="5.3526433837"><ele>234.22</ele><time>2017-04-09T09:22:54Z</time></trkpt><trkpt lat="43.7036396842" lon="5.3527747281"><ele>235.18</ele><time>2017-04-09T09:23:11Z</time></trkpt><trkpt lat="43.7034711242" lon="5.3528788313"><ele>236.14</ele><time>2017-04-09T09:23:29Z</time></trkpt><trkpt lat="43.7033733074" lon="5.3529251833"><ele>237.58</ele><time>2017-04-09T09:23:40Z</time></trkpt><trkpt lat="43.7031967007" lon="5.3529979382"><ele>239.02</ele><time>2017-04-09T09:23:58Z</time></trkpt><trkpt lat="43.7030093651" lon="5.3530566953"><ele>240.95</ele><time>2017-04-09T09:24:17Z</time></trkpt><trkpt lat="43.7028470915" lon="5.3530893847"><ele>241.91</ele><time>2017-04-09T09:24:34Z</time></trkpt><trkpt lat="43.7027240451" lon="5.3530908097"><ele>243.35</ele><time>2017-04-09T09:24:48Z</time></trkpt><trkpt lat="43.7025888450" lon="5.3530857805"><ele>244.79</ele><time>2017-04-09T09:25:03Z</time></trkpt><trkpt lat="43.7024279125" lon="5.3530659992"><ele>246.72</ele><time>2017-04-09T09:25:22Z</time></trkpt><trkpt lat="43.7022750266" lon="5.3530651610"><ele>248.16</ele><time>2017-04-09T09:25:40Z</time></trkpt><trkpt lat="43.7021339592" lon="5.3531033825"><ele>249.60</ele><time>2017-04-09T09:25:57Z</time></trkpt><trkpt lat="43.7020879425" lon="5.3531314619"><ele>250.08</ele><time>2017-04-09T09:26:03Z</time></trkpt><trkpt lat="43.7019822467" lon="5.3532252554"><ele>251.52</ele><time>2017-04-09T09:26:18Z</time></trkpt><trkpt lat="43.7018498965" lon="5.3533693403"><ele>252.96</ele><time>2017-04-09T09:26:37Z</time></trkpt><trkpt lat="43.7018042989" lon="5.3534092382"><ele>253.93</ele><time>2017-04-09T09:26:43Z</time></trkpt><trkpt lat="43.7016606331" lon="5.3534522373"><ele>254.89</ele><time>2017-04-09T09:27:00Z</time></trkpt><trkpt lat="43.7015629839" lon="5.3534617927"><ele>255.85</ele><time>2017-04-09T09:27:11Z</time></trkpt><trkpt lat="43.7014211621" lon="5.3534829151"><ele>257.29</ele><time>2017-04-09T09:27:27Z</time></trkpt><trkpt lat="43.7012770772" lon="5.3535068035"><ele>258.73</ele><time>2017-04-09T09:27:43Z</time></trkpt><trkpt lat="43.7011764944" lon="5.3535260819"><ele>259.21</ele><time>2017-04-09T09:27:56Z</time></trkpt><trkpt lat="43.7010486703" lon="5.3535920475"><ele>260.65</ele><time>2017-04-09T09:28:11Z</time></trkpt><trkpt lat="43.7009046692" lon="5.3536589351"><ele>262.58</ele><time>2017-04-09T09:28:28Z</time></trkpt><trkpt lat="43.7007599138" lon="5.3537149262"><ele>263.54</ele><time>2017-04-09T09:28:45Z</time></trkpt><trkpt lat="43.7006185949" lon="5.3537161835"><ele>264.50</ele><time>2017-04-09T09:29:00Z</time></trkpt><trkpt lat="43.7004742585" lon="5.3536876012"><ele>265.94</ele><time>2017-04-09T09:29:15Z</time></trkpt><trkpt lat="43.7003016751" lon="5.3536287602"><ele>267.86</ele><time>2017-04-09T09:29:35Z</time></trkpt><trkpt lat="43.7001751084" lon="5.3536341246"><ele>269.31</ele><time>2017-04-09T09:29:51Z</time></trkpt><trkpt lat="43.7000405788" lon="5.3537047841"><ele>270.27</ele><time>2017-04-09T09:30:08Z</time></trkpt><trkpt lat="43.6998946499" lon="5.3537668101"><ele>272.19</ele><time>2017-04-09T09:30:25Z</time></trkpt><trkpt lat="43.6997371539" lon="5.3538041096"><ele>274.11</ele><time>2017-04-09T09:30:43Z</time></trkpt><trkpt lat="43.6995740421" lon="5.3538399842"><ele>275.56</ele><time>2017-04-09T09:31:00Z</time></trkpt><trkpt lat="43.6994061526" lon="5.3538202029"><ele>277.00</ele><time>2017-04-09T09:31:17Z</time></trkpt><trkpt lat="43.6992482375" lon="5.3538063727"><ele>278.44</ele><time>2017-04-09T09:31:33Z</time></trkpt><trkpt lat="43.6990902387" lon="5.3538040258"><ele>279.40</ele><time>2017-04-09T09:31:49Z</time></trkpt><trkpt lat="43.6989187449" lon="5.3538065404"><ele>280.36</ele><time>2017-04-09T09:32:05Z</time></trkpt><trkpt lat="43.6988070142" lon="5.3537862562"><ele>280.84</ele><time>2017-04-09T09:32:16Z</time></trkpt><trkpt lat="43.6987852212" lon="5.3537803888"><ele>280.84</ele><time>2017-04-09T09:32:19Z</time></trkpt><trkpt lat="43.6986164097" lon="5.3536931332"><ele>280.84</ele><time>2017-04-09T09:32:38Z</time></trkpt><trkpt lat="43.6984494422" lon="5.3536104038"><ele>279.88</ele><time>2017-04-09T09:32:56Z</time></trkpt><trkpt lat="43.6982992385" lon="5.3535220586"><ele>278.92</ele><time>2017-04-09T09:33:13Z</time></trkpt><trkpt lat="43.6981424130" lon="5.3534824122"><ele>278.44</ele><time>2017-04-09T09:33:30Z</time></trkpt><trkpt lat="43.6979442649" lon="5.3534573503"><ele>277.96</ele><time>2017-04-09T09:33:49Z</time></trkpt><trkpt lat="43.6977460328" lon="5.3534595296"><ele>278.44</ele><time>2017-04-09T09:34:06Z</time></trkpt><trkpt lat="43.6975629721" lon="5.3535472881"><ele>277.96</ele><time>2017-04-09T09:34:24Z</time></trkpt><trkpt lat="43.6974967550" lon="5.3537152614"><ele>278.92</ele><time>2017-04-09T09:34:39Z</time></trkpt><trkpt lat="43.6974608805" lon="5.3538916167"><ele>280.84</ele><time>2017-04-09T09:34:54Z</time></trkpt><trkpt lat="43.6974369921" lon="5.3541004099"><ele>282.28</ele><time>2017-04-09T09:35:11Z</time></trkpt><trkpt lat="43.6974076554" lon="5.3542699758"><ele>284.21</ele><time>2017-04-09T09:35:26Z</time></trkpt><trkpt lat="43.6973693501" lon="5.3544537071"><ele>285.65</ele><time>2017-04-09T09:35:42Z</time></trkpt><trkpt lat="43.6972983554" lon="5.3545983788"><ele>287.09</ele><time>2017-04-09T09:35:57Z</time></trkpt><trkpt lat="43.6971945874" lon="5.3547132108"><ele>289.01</ele><time>2017-04-09T09:36:12Z</time></trkpt><trkpt lat="43.6970702838" lon="5.3547637537"><ele>290.46</ele><time>2017-04-09T09:36:28Z</time></trkpt><trkpt lat="43.6969324015" lon="5.3547862172"><ele>291.90</ele><time>2017-04-09T09:36:43Z</time></trkpt><trkpt lat="43.6967909988" lon="5.3548035678"><ele>293.34</ele><time>2017-04-09T09:37:00Z</time></trkpt><trkpt lat="43.6966361012" lon="5.3548494168"><ele>295.26</ele><time>2017-04-09T09:37:18Z</time></trkpt><trkpt lat="43.6964642722" lon="5.3549029771"><ele>297.67</ele><time>2017-04-09T09:37:35Z</time></trkpt><trkpt lat="43.6963135656" lon="5.3549327329"><ele>299.59</ele><time>2017-04-09T09:37:50Z</time></trkpt><trkpt lat="43.6961525492" lon="5.3549756482"><ele>301.51</ele><time>2017-04-09T09:38:06Z</time></trkpt><trkpt lat="43.6960238870" lon="5.3550279513"><ele>303.43</ele><time>2017-04-09T09:38:21Z</time></trkpt><trkpt lat="43.6960017588" lon="5.3550299630"><ele>303.91</ele><time>2017-04-09T09:38:35Z</time></trkpt><trkpt lat="43.6960153375" lon="5.3550476488"><ele>303.91</ele><time>2017-04-09T09:39:07Z</time></trkpt><trkpt lat="43.6960160080" lon="5.3550385125"><ele>303.91</ele><time>2017-04-09T09:39:38Z</time></trkpt><trkpt lat="43.6960032675" lon="5.3550384287"><ele>304.39</ele><time>2017-04-09T09:40:03Z</time></trkpt><trkpt lat="43.6959847435" lon="5.3550215811"><ele>304.39</ele><time>2017-04-09T09:40:25Z</time></trkpt><trkpt lat="43.6960014235" lon="5.3550240956"><ele>304.39</ele><time>2017-04-09T09:40:56Z</time></trkpt><trkpt lat="43.6960150022" lon="5.3550142050"><ele>304.39</ele><time>2017-04-09T09:41:31Z</time></trkpt><trkpt lat="43.6958929617" lon="5.3550385125"><ele>304.88</ele><time>2017-04-09T09:41:48Z</time></trkpt><trkpt lat="43.6957680713" lon="5.3550819308"><ele>306.80</ele><time>2017-04-09T09:42:04Z</time></trkpt><trkpt lat="43.6956167780" lon="5.3551296238"><ele>308.24</ele><time>2017-04-09T09:42:22Z</time></trkpt><trkpt lat="43.6954566836" lon="5.3551774006"><ele>310.16</ele><time>2017-04-09T09:42:40Z</time></trkpt><trkpt lat="43.6952998582" lon="5.3552323021"><ele>311.60</ele><time>2017-04-09T09:42:58Z</time></trkpt><trkpt lat="43.6951550189" lon="5.3552856948"><ele>313.53</ele><time>2017-04-09T09:43:15Z</time></trkpt><trkpt lat="43.6950208247" lon="5.3553179651"><ele>314.97</ele><time>2017-04-09T09:43:30Z</time></trkpt><trkpt lat="43.6949602235" lon="5.3552417737"><ele>316.89</ele><time>2017-04-09T09:43:43Z</time></trkpt><trkpt lat="43.6949993670" lon="5.3550961800"><ele>319.30</ele><time>2017-04-09T09:43:57Z</time></trkpt><trkpt lat="43.6950310506" lon="5.3549516760"><ele>319.78</ele><time>2017-04-09T09:44:09Z</time></trkpt><trkpt lat="43.6949619837" lon="5.3547920845"><ele>321.22</ele><time>2017-04-09T09:44:25Z</time></trkpt><trkpt lat="43.6948187370" lon="5.3546716366"><ele>322.18</ele><time>2017-04-09T09:44:42Z</time></trkpt><trkpt lat="43.6946785916" lon="5.3545511886"><ele>323.14</ele><time>2017-04-09T09:44:59Z</time></trkpt><trkpt lat="43.6945656035" lon="5.3544490971"><ele>324.10</ele><time>2017-04-09T09:45:14Z</time></trkpt><trkpt lat="43.6944636796" lon="5.3543631826"><ele>326.02</ele><time>2017-04-09T09:45:28Z</time></trkpt><trkpt lat="43.6943568103" lon="5.3542836383"><ele>326.99</ele><time>2017-04-09T09:45:42Z</time></trkpt><trkpt lat="43.6942945328" lon="5.3542884160"><ele>327.95</ele><time>2017-04-09T09:45:50Z</time></trkpt><trkpt lat="43.6941662896" lon="5.3543770127"><ele>329.87</ele><time>2017-04-09T09:46:07Z</time></trkpt><trkpt lat="43.6940449197" lon="5.3544783499"><ele>331.31</ele><time>2017-04-09T09:46:23Z</time></trkpt><trkpt lat="43.6939087138" lon="5.3546077665"><ele>332.75</ele><time>2017-04-09T09:46:42Z</time></trkpt><trkpt lat="43.6937738489" lon="5.3547554556"><ele>333.71</ele><time>2017-04-09T09:46:59Z</time></trkpt><trkpt lat="43.6936311889" lon="5.3548947629"><ele>334.20</ele><time>2017-04-09T09:47:17Z</time></trkpt><trkpt lat="43.6935917102" lon="5.3549481556"><ele>334.20</ele><time>2017-04-09T09:47:22Z</time></trkpt><trkpt lat="43.6934591923" lon="5.3551035561"><ele>334.68</ele><time>2017-04-09T09:47:38Z</time></trkpt><trkpt lat="43.6933410913" lon="5.3552646562"><ele>334.68</ele><time>2017-04-09T09:47:55Z</time></trkpt><trkpt lat="43.6932478007" lon="5.3554500639"><ele>334.68</ele><time>2017-04-09T09:48:11Z</time></trkpt><trkpt lat="43.6931302864" lon="5.3556249104"><ele>333.23</ele><time>2017-04-09T09:48:28Z</time></trkpt><trkpt lat="43.6929714493" lon="5.3557139263"><ele>331.79</ele><time>2017-04-09T09:48:44Z</time></trkpt><trkpt lat="43.6928080861" lon="5.3557379823"><ele>328.91</ele><time>2017-04-09T09:49:01Z</time></trkpt><trkpt lat="43.6926314794" lon="5.3557000961"><ele>327.95</ele><time>2017-04-09T09:49:18Z</time></trkpt><trkpt lat="43.6924692895" lon="5.3556586895"><ele>326.50</ele><time>2017-04-09T09:49:34Z</time></trkpt><trkpt lat="43.6924613267" lon="5.3556544147"><ele>326.50</ele><time>2017-04-09T09:49:35Z</time></trkpt><trkpt lat="43.6922809482" lon="5.3555611242"><ele>324.58</ele><time>2017-04-09T09:49:54Z</time></trkpt><trkpt lat="43.6922211014" lon="5.3555447794"><ele>324.10</ele><time>2017-04-09T09:50:00Z</time></trkpt><trkpt lat="43.6920543853" lon="5.3555432707"><ele>324.10</ele><time>2017-04-09T09:50:16Z</time></trkpt><trkpt lat="43.6920004059" lon="5.3555577714"><ele>325.54</ele><time>2017-04-09T09:50:22Z</time></trkpt><trkpt lat="43.6919806246" lon="5.3555653151"><ele>325.54</ele><time>2017-04-09T09:50:24Z</time></trkpt><trkpt lat="43.6918560695" lon="5.3555855993"><ele>326.99</ele><time>2017-04-09T09:50:38Z</time></trkpt><trkpt lat="43.6917156726" lon="5.3556069732"><ele>328.91</ele><time>2017-04-09T09:50:54Z</time></trkpt><trkpt lat="43.6915730126" lon="5.3556559235"><ele>330.35</ele><time>2017-04-09T09:51:10Z</time></trkpt><trkpt lat="43.6914250720" lon="5.3556994256"><ele>331.79</ele><time>2017-04-09T09:51:26Z</time></trkpt><trkpt lat="43.6912479624" lon="5.3557254933"><ele>332.75</ele><time>2017-04-09T09:51:43Z</time></trkpt><trkpt lat="43.6910333857" lon="5.3557294328"><ele>332.75</ele><time>2017-04-09T09:52:03Z</time></trkpt><trkpt lat="43.6908524204" lon="5.3557424247"><ele>332.75</ele><time>2017-04-09T09:52:20Z</time></trkpt><trkpt lat="43.6906942539" lon="5.3557685763"><ele>332.75</ele><time>2017-04-09T09:52:35Z</time></trkpt><trkpt lat="43.6905023921" lon="5.3558003437"><ele>334.20</ele><time>2017-04-09T09:52:54Z</time></trkpt><trkpt lat="43.6903373525" lon="5.3558344580"><ele>336.12</ele><time>2017-04-09T09:53:12Z</time></trkpt><trkpt lat="43.6901651043" lon="5.3558776248"><ele>338.52</ele><time>2017-04-09T09:53:30Z</time></trkpt><trkpt lat="43.6899788585" lon="5.3559109848"><ele>338.52</ele><time>2017-04-09T09:53:49Z</time></trkpt><trkpt lat="43.6898056045" lon="5.3559647966"><ele>339.00</ele><time>2017-04-09T09:54:07Z</time></trkpt><trkpt lat="43.6896293331" lon="5.3560701571"><ele>339.00</ele><time>2017-04-09T09:54:25Z</time></trkpt><trkpt lat="43.6894747708" lon="5.3561886773"><ele>339.48</ele><time>2017-04-09T09:54:42Z</time></trkpt><trkpt lat="43.6892943922" lon="5.3563528787"><ele>340.92</ele><time>2017-04-09T09:55:03Z</time></trkpt><trkpt lat="43.6891681608" lon="5.3564250469"><ele>342.37</ele><time>2017-04-09T09:55:17Z</time></trkpt><trkpt lat="43.6889889557" lon="5.3564700577"><ele>342.85</ele><time>2017-04-09T09:55:35Z</time></trkpt><trkpt lat="43.6889593676" lon="5.3564675432"><ele>342.85</ele><time>2017-04-09T09:55:38Z</time></trkpt><trkpt lat="43.6887514126" lon="5.3565059323"><ele>343.81</ele><time>2017-04-09T09:55:58Z</time></trkpt><trkpt lat="43.6885755602" lon="5.3565514460"><ele>344.77</ele><time>2017-04-09T09:56:15Z</time></trkpt><trkpt lat="43.6884225067" lon="5.3566397075"><ele>345.25</ele><time>2017-04-09T09:56:30Z</time></trkpt><trkpt lat="43.6882419605" lon="5.3567240294"><ele>345.73</ele><time>2017-04-09T09:56:48Z</time></trkpt><trkpt lat="43.6880764179" lon="5.3567858040"><ele>346.69</ele><time>2017-04-09T09:57:05Z</time></trkpt><trkpt lat="43.6879004817" lon="5.3568505123"><ele>347.17</ele><time>2017-04-09T09:57:23Z</time></trkpt><trkpt lat="43.6877231207" lon="5.3569232672"><ele>348.13</ele><time>2017-04-09T09:57:40Z</time></trkpt><trkpt lat="43.6875485256" lon="5.3570221737"><ele>348.13</ele><time>2017-04-09T09:57:57Z</time></trkpt><trkpt lat="43.6873620283" lon="5.3571461421"><ele>348.13</ele><time>2017-04-09T09:58:16Z</time></trkpt><trkpt lat="43.6871798895" lon="5.3572565317"><ele>348.13</ele><time>2017-04-09T09:58:34Z</time></trkpt><trkpt lat="43.6870207172" lon="5.3573530912"><ele>348.13</ele><time>2017-04-09T09:58:52Z</time></trkpt><trkpt lat="43.6868664902" lon="5.3574257623"><ele>349.10</ele><time>2017-04-09T09:59:09Z</time></trkpt><trkpt lat="43.6867112573" lon="5.3574629780"><ele>350.06</ele><time>2017-04-09T09:59:25Z</time></trkpt><trkpt lat="43.6865631491" lon="5.3574444540"><ele>350.54</ele><time>2017-04-09T09:59:40Z</time></trkpt><trkpt lat="43.6864852812" lon="5.3574394248"><ele>351.02</ele><time>2017-04-09T09:59:48Z</time></trkpt><trkpt lat="43.6863043159" lon="5.3574219067"><ele>352.46</ele><time>2017-04-09T10:00:06Z</time></trkpt><trkpt lat="43.6861364264" lon="5.3574300371"><ele>354.38</ele><time>2017-04-09T10:00:24Z</time></trkpt><trkpt lat="43.6859751586" lon="5.3574553505"><ele>355.83</ele><time>2017-04-09T10:00:41Z</time></trkpt><trkpt lat="43.6857649405" lon="5.3574779816"><ele>357.27</ele><time>2017-04-09T10:01:01Z</time></trkpt><trkpt lat="43.6855648644" lon="5.3574897163"><ele>357.75</ele><time>2017-04-09T10:01:20Z</time></trkpt><trkpt lat="43.6853838991" lon="5.3575057257"><ele>358.23</ele><time>2017-04-09T10:01:38Z</time></trkpt><trkpt lat="43.6851608567" lon="5.3575190529"><ele>358.23</ele><time>2017-04-09T10:01:58Z</time></trkpt><trkpt lat="43.6849879380" lon="5.3575126827"><ele>358.23</ele><time>2017-04-09T10:02:15Z</time></trkpt><trkpt lat="43.6848679092" lon="5.3574415203"><ele>359.19</ele><time>2017-04-09T10:02:31Z</time></trkpt><trkpt lat="43.6848225631" lon="5.3573716152"><ele>360.15</ele><time>2017-04-09T10:02:46Z</time></trkpt><trkpt lat="43.6847987585" lon="5.3573559411"><ele>360.15</ele><time>2017-04-09T10:03:04Z</time></trkpt><trkpt lat="43.6847949028" lon="5.3573683463"><ele>359.19</ele><time>2017-04-09T10:03:36Z</time></trkpt><trkpt lat="43.6847947352" lon="5.3573622275"><ele>359.19</ele><time>2017-04-09T10:04:13Z</time></trkpt><trkpt lat="43.6848083977" lon="5.3573405184"><ele>359.19</ele><time>2017-04-09T10:04:55Z</time></trkpt><trkpt lat="43.6847873591" lon="5.3573366627"><ele>359.19</ele><time>2017-04-09T10:05:38Z</time></trkpt><trkpt lat="43.6847899575" lon="5.3573701903"><ele>359.19</ele><time>2017-04-09T10:06:20Z</time></trkpt><trkpt lat="43.6847811565" lon="5.3573551867"><ele>359.19</ele><time>2017-04-09T10:06:59Z</time></trkpt><trkpt lat="43.6847653985" lon="5.3573535103"><ele>359.19</ele><time>2017-04-09T10:07:35Z</time></trkpt><trkpt lat="43.6847659014" lon="5.3573584557"><ele>359.67</ele><time>2017-04-09T10:08:08Z</time></trkpt><trkpt lat="43.6847877782" lon="5.3573455475"><ele>359.67</ele><time>2017-04-09T10:08:52Z</time></trkpt><trkpt lat="43.6847968306" lon="5.3573766444"><ele>360.15</ele><time>2017-04-09T10:09:35Z</time></trkpt><trkpt lat="43.6848063022" lon="5.3573769797"><ele>360.15</ele><time>2017-04-09T10:10:15Z</time></trkpt><trkpt lat="43.6847975012" lon="5.3573447093"><ele>360.15</ele><time>2017-04-09T10:10:54Z</time></trkpt><trkpt lat="43.6847977526" lon="5.3573806677"><ele>360.15</ele><time>2017-04-09T10:11:40Z</time></trkpt><trkpt lat="43.6847543344" lon="5.3573920671"><ele>360.63</ele><time>2017-04-09T10:12:14Z</time></trkpt><trkpt lat="43.6847788095" lon="5.3573947493"><ele>360.63</ele><time>2017-04-09T10:12:53Z</time></trkpt><trkpt lat="43.6848015245" lon="5.3573893849"><ele>360.63</ele><time>2017-04-09T10:13:38Z</time></trkpt><trkpt lat="43.6847891193" lon="5.3573919833"><ele>361.11</ele><time>2017-04-09T10:14:16Z</time></trkpt><trkpt lat="43.6847804859" lon="5.3574133571"><ele>361.11</ele><time>2017-04-09T10:14:53Z</time></trkpt><trkpt lat="43.6847908795" lon="5.3574196436"><ele>361.11</ele><time>2017-04-09T10:15:24Z</time></trkpt><trkpt lat="43.6847824138" lon="5.3574219067"><ele>361.11</ele><time>2017-04-09T10:15:55Z</time></trkpt><trkpt lat="43.6847754568" lon="5.3574079089"><ele>361.59</ele><time>2017-04-09T10:16:31Z</time></trkpt><trkpt lat="43.6847897898" lon="5.3573975991"><ele>361.59</ele><time>2017-04-09T10:17:07Z</time></trkpt><trkpt lat="43.6847555079" lon="5.3574222419"><ele>361.59</ele><time>2017-04-09T10:17:46Z</time></trkpt><trkpt lat="43.6847897898" lon="5.3573980182"><ele>362.07</ele><time>2017-04-09T10:18:29Z</time></trkpt><trkpt lat="43.6847841740" lon="5.3573838528"><ele>363.04</ele><time>2017-04-09T10:19:11Z</time></trkpt><trkpt lat="43.6847861856" lon="5.3573847748"><ele>363.04</ele><time>2017-04-09T10:19:49Z</time></trkpt><trkpt lat="43.6847868562" lon="5.3573947493"><ele>363.52</ele><time>2017-04-09T10:20:23Z</time></trkpt><trkpt lat="43.6847813241" lon="5.3574066516"><ele>363.52</ele><time>2017-04-09T10:20:59Z</time></trkpt><trkpt lat="43.6847798992" lon="5.3574182186"><ele>363.52</ele><time>2017-04-09T10:21:31Z</time></trkpt><trkpt lat="43.6847769655" lon="5.3574105073"><ele>364.00</ele><time>2017-04-09T10:22:15Z</time></trkpt><trkpt lat="43.6847839225" lon="5.3573970962"><ele>364.00</ele><time>2017-04-09T10:22:59Z</time></trkpt><trkpt lat="43.6847733613" lon="5.3574039694"><ele>364.00</ele><time>2017-04-09T10:23:32Z</time></trkpt><trkpt lat="43.6847707629" lon="5.3573677596"><ele>364.48</ele><time>2017-04-09T10:24:07Z</time></trkpt><trkpt lat="43.6847802345" lon="5.3573930729"><ele>364.48</ele><time>2017-04-09T10:24:48Z</time></trkpt><trkpt lat="43.6847835872" lon="5.3574001975"><ele>364.48</ele><time>2017-04-09T10:25:26Z</time></trkpt><trkpt lat="43.6847997643" lon="5.3573640715"><ele>364.48</ele><time>2017-04-09T10:26:00Z</time></trkpt><trkpt lat="43.6847776361" lon="5.3573908936"><ele>364.96</ele><time>2017-04-09T10:26:36Z</time></trkpt><trkpt lat="43.6847949028" lon="5.3573677596"><ele>364.96</ele><time>2017-04-09T10:27:16Z</time></trkpt><trkpt lat="43.6847861018" lon="5.3573500738"><ele>364.96</ele><time>2017-04-09T10:27:54Z</time></trkpt><trkpt lat="43.6847819109" lon="5.3573491517"><ele>364.96</ele><time>2017-04-09T10:28:41Z</time></trkpt><trkpt lat="43.6847669072" lon="5.3573696036"><ele>365.44</ele><time>2017-04-09T10:29:24Z</time></trkpt><trkpt lat="43.6847753730" lon="5.3573725373"><ele>365.44</ele><time>2017-04-09T10:30:00Z</time></trkpt><trkpt lat="43.6848027818" lon="5.3573670052"><ele>365.44</ele><time>2017-04-09T10:30:25Z</time></trkpt><trkpt lat="43.6848034523" lon="5.3573487327"><ele>365.44</ele><time>2017-04-09T10:30:56Z</time></trkpt><trkpt lat="43.6848104931" lon="5.3573446255"><ele>365.44</ele><time>2017-04-09T10:31:25Z</time></trkpt><trkpt lat="43.6848011892" lon="5.3573437873"><ele>365.44</ele><time>2017-04-09T10:32:07Z</time></trkpt><trkpt lat="43.6848066375" lon="5.3573521692"><ele>365.44</ele><time>2017-04-09T10:32:49Z</time></trkpt><trkpt lat="43.6847992614" lon="5.3573443741"><ele>365.44</ele><time>2017-04-09T10:33:30Z</time></trkpt><trkpt lat="43.6848160252" lon="5.3573344834"><ele>365.44</ele><time>2017-04-09T10:34:05Z</time></trkpt><trkpt lat="43.6848198809" lon="5.3573356569"><ele>365.44</ele><time>2017-04-09T10:34:46Z</time></trkpt><trkpt lat="43.6848057993" lon="5.3573564440"><ele>365.44</ele><time>2017-04-09T10:35:22Z</time></trkpt><trkpt lat="43.6848210543" lon="5.3573519178"><ele>365.44</ele><time>2017-04-09T10:35:55Z</time></trkpt><trkpt lat="43.6848322861" lon="5.3573345672"><ele>365.44</ele><time>2017-04-09T10:36:24Z</time></trkpt><trkpt lat="43.6848198809" lon="5.3573427815"><ele>365.44</ele><time>2017-04-09T10:36:49Z</time></trkpt><trkpt lat="43.6847884487" lon="5.3573562764"><ele>365.44</ele><time>2017-04-09T10:37:24Z</time></trkpt><trkpt lat="43.6848016083" lon="5.3573707771"><ele>365.44</ele><time>2017-04-09T10:37:52Z</time></trkpt><trkpt lat="43.6848028656" lon="5.3573540971"><ele>365.44</ele><time>2017-04-09T10:38:19Z</time></trkpt><trkpt lat="43.6848041229" lon="5.3573820926"><ele>365.44</ele><time>2017-04-09T10:38:52Z</time></trkpt><trkpt lat="43.6848063022" lon="5.3573806677"><ele>365.92</ele><time>2017-04-09T10:39:18Z</time></trkpt><trkpt lat="43.6847997643" lon="5.3573800810"><ele>365.92</ele><time>2017-04-09T10:39:50Z</time></trkpt><trkpt lat="43.6848171148" lon="5.3573525045"><ele>366.40</ele><time>2017-04-09T10:40:20Z</time></trkpt><trkpt lat="43.6848068889" lon="5.3573596291"><ele>366.40</ele><time>2017-04-09T10:41:00Z</time></trkpt><trkpt lat="43.6848146003" lon="5.3573830146"><ele>366.40</ele><time>2017-04-09T10:41:41Z</time></trkpt><trkpt lat="43.6848164443" lon="5.3573830146"><ele>366.40</ele><time>2017-04-09T10:42:20Z</time></trkpt><trkpt lat="43.6848084815" lon="5.3573636524"><ele>366.40</ele><time>2017-04-09T10:43:04Z</time></trkpt><trkpt lat="43.6848203000" lon="5.3573665023"><ele>366.40</ele><time>2017-04-09T10:43:44Z</time></trkpt><trkpt lat="43.6848074757" lon="5.3573582042"><ele>366.88</ele><time>2017-04-09T10:44:18Z</time></trkpt><trkpt lat="43.6847996805" lon="5.3573619761"><ele>367.36</ele><time>2017-04-09T10:44:49Z</time></trkpt><trkpt lat="43.6848016083" lon="5.3573629819"><ele>367.36</ele><time>2017-04-09T10:45:21Z</time></trkpt><trkpt lat="43.6848093197" lon="5.3573534265"><ele>367.36</ele><time>2017-04-09T10:45:45Z</time></trkpt><trkpt lat="43.6848166957" lon="5.3573613055"><ele>367.36</ele><time>2017-04-09T10:46:14Z</time></trkpt><trkpt lat="43.6848243233" lon="5.3573377524"><ele>367.36</ele><time>2017-04-09T10:46:48Z</time></trkpt><trkpt lat="43.6848205514" lon="5.3573301248"><ele>367.36</ele><time>2017-04-09T10:47:29Z</time></trkpt><trkpt lat="43.6848162767" lon="5.3573061526"><ele>367.36</ele><time>2017-04-09T10:48:08Z</time></trkpt><trkpt lat="43.6848079786" lon="5.3573499061"><ele>367.36</ele><time>2017-04-09T10:48:37Z</time></trkpt><trkpt lat="43.6848257482" lon="5.3573520854"><ele>367.36</ele><time>2017-04-09T10:49:11Z</time></trkpt><trkpt lat="43.6848140974" lon="5.3573920671"><ele>367.36</ele><time>2017-04-09T10:49:39Z</time></trkpt><trkpt lat="43.6848121695" lon="5.3574519977"><ele>367.36</ele><time>2017-04-09T10:49:52Z</time></trkpt><trkpt lat="43.6848115828" lon="5.3574425261"><ele>366.40</ele><time>2017-04-09T10:50:16Z</time></trkpt><trkpt lat="43.6848075595" lon="5.3574377485"><ele>365.92</ele><time>2017-04-09T10:50:49Z</time></trkpt><trkpt lat="43.6848134268" lon="5.3574310429"><ele>365.92</ele><time>2017-04-09T10:51:27Z</time></trkpt><trkpt lat="43.6847970821" lon="5.3574346472"><ele>365.92</ele><time>2017-04-09T10:51:57Z</time></trkpt><trkpt lat="43.6847962439" lon="5.3574299533"><ele>365.92</ele><time>2017-04-09T10:52:24Z</time></trkpt><trkpt lat="43.6848047096" lon="5.3574387543"><ele>365.92</ele><time>2017-04-09T10:52:54Z</time></trkpt><trkpt lat="43.6847779714" lon="5.3574437834"><ele>365.92</ele><time>2017-04-09T10:53:17Z</time></trkpt><trkpt lat="43.6847804021" lon="5.3574140277"><ele>365.92</ele><time>2017-04-09T10:53:45Z</time></trkpt><trkpt lat="43.6847690027" lon="5.3574044723"><ele>365.92</ele><time>2017-04-09T10:54:10Z</time></trkpt><trkpt lat="43.6847663205" lon="5.3574090824"><ele>365.92</ele><time>2017-04-09T10:54:35Z</time></trkpt><trkpt lat="43.6847665720" lon="5.3574043885"><ele>365.92</ele><time>2017-04-09T10:55:07Z</time></trkpt><trkpt lat="43.6847900413" lon="5.3574279416"><ele>365.44</ele><time>2017-04-09T10:55:37Z</time></trkpt><trkpt lat="43.6847996805" lon="5.3574323840"><ele>366.88</ele><time>2017-04-09T10:56:02Z</time></trkpt><trkpt lat="43.6847881135" lon="5.3574157879"><ele>366.88</ele><time>2017-04-09T10:56:34Z</time></trkpt><trkpt lat="43.6847745348" lon="5.3574070707"><ele>366.88</ele><time>2017-04-09T10:57:03Z</time></trkpt><trkpt lat="43.6847679969" lon="5.3574102558"><ele>366.88</ele><time>2017-04-09T10:57:42Z</time></trkpt><trkpt lat="43.6847834196" lon="5.3574167937"><ele>366.88</ele><time>2017-04-09T10:58:04Z</time></trkpt><trkpt lat="43.6848008540" lon="5.3574144468"><ele>366.88</ele><time>2017-04-09T10:58:35Z</time></trkpt><trkpt lat="43.6848061346" lon="5.3574104235"><ele>366.40</ele><time>2017-04-09T10:59:11Z</time></trkpt><trkpt lat="43.6847916339" lon="5.3574162070"><ele>366.40</ele><time>2017-04-09T10:59:49Z</time></trkpt><trkpt lat="43.6848018598" lon="5.3574077412"><ele>366.40</ele><time>2017-04-09T11:00:24Z</time></trkpt><trkpt lat="43.6848000158" lon="5.3574120998"><ele>366.40</ele><time>2017-04-09T11:01:01Z</time></trkpt><trkpt lat="43.6847909633" lon="5.3574213199"><ele>366.40</ele><time>2017-04-09T11:01:32Z</time></trkpt><trkpt lat="43.6848016083" lon="5.3574160393"><ele>366.40</ele><time>2017-04-09T11:02:05Z</time></trkpt><trkpt lat="43.6848171987" lon="5.3574197274"><ele>365.92</ele><time>2017-04-09T11:02:41Z</time></trkpt><trkpt lat="43.6847976688" lon="5.3574075736"><ele>365.92</ele><time>2017-04-09T11:03:24Z</time></trkpt><trkpt lat="43.6847618781" lon="5.3573912289"><ele>365.92</ele><time>2017-04-09T11:03:57Z</time></trkpt><trkpt lat="43.6847560946" lon="5.3573785722"><ele>366.40</ele><time>2017-04-09T11:04:23Z</time></trkpt><trkpt lat="43.6847636383" lon="5.3574012872"><ele>366.40</ele><time>2017-04-09T11:04:57Z</time></trkpt><trkpt lat="43.6847867724" lon="5.3574167099"><ele>365.92</ele><time>2017-04-09T11:05:37Z</time></trkpt><trkpt lat="43.6847798154" lon="5.3574024606"><ele>365.92</ele><time>2017-04-09T11:06:03Z</time></trkpt><trkpt lat="43.6847680807" lon="5.3573992755"><ele>365.92</ele><time>2017-04-09T11:06:30Z</time></trkpt><trkpt lat="43.6847798992" lon="5.3574224934"><ele>365.92</ele><time>2017-04-09T11:07:04Z</time></trkpt><trkpt lat="43.6847709306" lon="5.3574181348"><ele>365.92</ele><time>2017-04-09T11:07:39Z</time></trkpt><trkpt lat="43.6847696733" lon="5.3574139439"><ele>365.92</ele><time>2017-04-09T11:08:11Z</time></trkpt><trkpt lat="43.6847436894" lon="5.3574095014"><ele>365.92</ele><time>2017-04-09T11:08:45Z</time></trkpt><trkpt lat="43.6847537477" lon="5.3574138600"><ele>365.92</ele><time>2017-04-09T11:09:15Z</time></trkpt><trkpt lat="43.6847816594" lon="5.3574287798"><ele>366.40</ele><time>2017-04-09T11:10:00Z</time></trkpt><trkpt lat="43.6847686674" lon="5.3574198112"><ele>366.40</ele><time>2017-04-09T11:10:40Z</time></trkpt><trkpt lat="43.6847778037" lon="5.3574100044"><ele>366.40</ele><time>2017-04-09T11:11:24Z</time></trkpt><trkpt lat="43.6847544182" lon="5.3574132733"><ele>366.40</ele><time>2017-04-09T11:11:54Z</time></trkpt><trkpt lat="43.6847767141" lon="5.3574021254"><ele>366.40</ele><time>2017-04-09T11:12:36Z</time></trkpt><trkpt lat="43.6847729422" lon="5.3574093338"><ele>366.40</ele><time>2017-04-09T11:13:10Z</time></trkpt><trkpt lat="43.6847726069" lon="5.3574206494"><ele>366.40</ele><time>2017-04-09T11:13:35Z</time></trkpt><trkpt lat="43.6847995128" lon="5.3574173804"><ele>366.40</ele><time>2017-04-09T11:14:12Z</time></trkpt><trkpt lat="43.6847777199" lon="5.3573911451"><ele>366.40</ele><time>2017-04-09T11:14:46Z</time></trkpt><trkpt lat="43.6847856827" lon="5.3573980182"><ele>365.92</ele><time>2017-04-09T11:15:26Z</time></trkpt><trkpt lat="43.6848024465" lon="5.3574207332"><ele>365.92</ele><time>2017-04-09T11:16:00Z</time></trkpt><trkpt lat="43.6848172825" lon="5.3574277740"><ele>365.92</ele><time>2017-04-09T11:16:41Z</time></trkpt><trkpt lat="43.6848084815" lon="5.3573983535"><ele>365.92</ele><time>2017-04-09T11:17:12Z</time></trkpt><trkpt lat="43.6848207191" lon="5.3574127704"><ele>365.92</ele><time>2017-04-09T11:17:38Z</time></trkpt><trkpt lat="43.6848122533" lon="5.3574198112"><ele>365.92</ele><time>2017-04-09T11:18:09Z</time></trkpt><trkpt lat="43.6847972497" lon="5.3574209847"><ele>365.92</ele><time>2017-04-09T11:18:41Z</time></trkpt><trkpt lat="43.6847928073" lon="5.3574087471"><ele>365.92</ele><time>2017-04-09T11:19:14Z</time></trkpt><trkpt lat="43.6848062184" lon="5.3574214038"><ele>365.92</ele><time>2017-04-09T11:19:41Z</time></trkpt><trkpt lat="43.6847964115" lon="5.3574266843"><ele>365.92</ele><time>2017-04-09T11:20:14Z</time></trkpt><trkpt lat="43.6847897060" lon="5.3574343119"><ele>365.92</ele><time>2017-04-09T11:20:44Z</time></trkpt><trkpt lat="43.6848004349" lon="5.3574463818"><ele>365.92</ele><time>2017-04-09T11:21:15Z</time></trkpt><trkpt lat="43.6848131754" lon="5.3574247565"><ele>365.92</ele><time>2017-04-09T11:21:41Z</time></trkpt><trkpt lat="43.6848145165" lon="5.3574271034"><ele>365.44</ele><time>2017-04-09T11:22:27Z</time></trkpt><trkpt lat="43.6847885326" lon="5.3574122675"><ele>365.44</ele><time>2017-04-09T11:23:11Z</time></trkpt><trkpt lat="43.6847921368" lon="5.3574095014"><ele>365.44</ele><time>2017-04-09T11:23:54Z</time></trkpt><trkpt lat="43.6848048773" lon="5.3574470524"><ele>365.44</ele><time>2017-04-09T11:24:25Z</time></trkpt><trkpt lat="43.6848220602" lon="5.3574447893"><ele>365.44</ele><time>2017-04-09T11:24:52Z</time></trkpt><trkpt lat="43.6848086491" lon="5.3574254271"><ele>365.92</ele><time>2017-04-09T11:25:24Z</time></trkpt><trkpt lat="43.6848144326" lon="5.3574162908"><ele>365.92</ele><time>2017-04-09T11:25:45Z</time></trkpt><trkpt lat="43.6848026980" lon="5.3573840205"><ele>365.92</ele><time>2017-04-09T11:26:20Z</time></trkpt><trkpt lat="43.6847989261" lon="5.3573989403"><ele>365.92</ele><time>2017-04-09T11:26:51Z</time></trkpt><trkpt lat="43.6848017760" lon="5.3574535903"><ele>365.92</ele><time>2017-04-09T11:27:14Z</time></trkpt><trkpt lat="43.6848152708" lon="5.3574668337"><ele>365.92</ele><time>2017-04-09T11:27:43Z</time></trkpt><trkpt lat="43.6848035362" lon="5.3574711923"><ele>365.92</ele><time>2017-04-09T11:27:46Z</time></trkpt><trkpt lat="43.6847345531" lon="5.3574520815"><ele>365.92</ele><time>2017-04-09T11:27:59Z</time></trkpt><trkpt lat="43.6847014446" lon="5.3574004490"><ele>364.96</ele><time>2017-04-09T11:28:12Z</time></trkpt><trkpt lat="43.6846878659" lon="5.3573811706"><ele>364.96</ele><time>2017-04-09T11:28:26Z</time></trkpt><trkpt lat="43.6846938170" lon="5.3574147820"><ele>364.96</ele><time>2017-04-09T11:28:55Z</time></trkpt><trkpt lat="43.6847225670" lon="5.3573951684"><ele>364.96</ele><time>2017-04-09T11:29:19Z</time></trkpt><trkpt lat="43.6847358942" lon="5.3573826794"><ele>364.96</ele><time>2017-04-09T11:29:49Z</time></trkpt><trkpt lat="43.6847403366" lon="5.3573763091"><ele>364.96</ele><time>2017-04-09T11:30:12Z</time></trkpt><trkpt lat="43.6847309489" lon="5.3573847748"><ele>364.96</ele><time>2017-04-09T11:30:48Z</time></trkpt><trkpt lat="43.6847138498" lon="5.3574198950"><ele>364.96</ele><time>2017-04-09T11:31:14Z</time></trkpt><trkpt lat="43.6847035401" lon="5.3574152011"><ele>364.96</ele><time>2017-04-09T11:31:47Z</time></trkpt><trkpt lat="43.6846789811" lon="5.3574048914"><ele>364.96</ele><time>2017-04-09T11:32:11Z</time></trkpt><trkpt lat="43.6845956650" lon="5.3573593777"><ele>364.96</ele><time>2017-04-09T11:32:30Z</time></trkpt><trkpt lat="43.6845181324" lon="5.3572823480"><ele>364.48</ele><time>2017-04-09T11:32:41Z</time></trkpt><trkpt lat="43.6843408551" lon="5.3571784962"><ele>364.00</ele><time>2017-04-09T11:33:00Z</time></trkpt><trkpt lat="43.6841836944" lon="5.3570748959"><ele>363.52</ele><time>2017-04-09T11:33:16Z</time></trkpt><trkpt lat="43.6840247735" lon="5.3569536097"><ele>363.04</ele><time>2017-04-09T11:33:34Z</time></trkpt><trkpt lat="43.6838373542" lon="5.3569151368"><ele>363.04</ele><time>2017-04-09T11:33:51Z</time></trkpt><trkpt lat="43.6836476717" lon="5.3569773305"><ele>363.04</ele><time>2017-04-09T11:34:08Z</time></trkpt><trkpt lat="43.6835372820" lon="5.3570656758"><ele>364.00</ele><time>2017-04-09T11:34:20Z</time></trkpt><trkpt lat="43.6834113859" lon="5.3572161309"><ele>364.96</ele><time>2017-04-09T11:34:37Z</time></trkpt><trkpt lat="43.6833004095" lon="5.3573898878"><ele>365.44</ele><time>2017-04-09T11:34:53Z</time></trkpt><trkpt lat="43.6831708252" lon="5.3575851861"><ele>365.92</ele><time>2017-04-09T11:35:11Z</time></trkpt><trkpt lat="43.6830797140" lon="5.3576568514"><ele>366.40</ele><time>2017-04-09T11:35:25Z</time></trkpt><trkpt lat="43.6830511317" lon="5.3576933127"><ele>366.40</ele><time>2017-04-09T11:35:39Z</time></trkpt><trkpt lat="43.6829171050" lon="5.3577621281"><ele>366.40</ele><time>2017-04-09T11:35:51Z</time></trkpt><trkpt lat="43.6827101558" lon="5.3577778861"><ele>366.40</ele><time>2017-04-09T11:36:10Z</time></trkpt><trkpt lat="43.6824746244" lon="5.3578408342"><ele>364.96</ele><time>2017-04-09T11:36:29Z</time></trkpt><trkpt lat="43.6822772305" lon="5.3579138406"><ele>364.00</ele><time>2017-04-09T11:36:46Z</time></trkpt><trkpt lat="43.6820668448" lon="5.3580215480"><ele>363.04</ele><time>2017-04-09T11:37:06Z</time></trkpt><trkpt lat="43.6818844546" lon="5.3581493720"><ele>363.04</ele><time>2017-04-09T11:37:25Z</time></trkpt><trkpt lat="43.6817446444" lon="5.3582169302"><ele>364.48</ele><time>2017-04-09T11:37:40Z</time></trkpt><trkpt lat="43.6815619189" lon="5.3583535552"><ele>365.92</ele><time>2017-04-09T11:37:58Z</time></trkpt><trkpt lat="43.6814002320" lon="5.3585299104"><ele>366.40</ele><time>2017-04-09T11:38:17Z</time></trkpt><trkpt lat="43.6812283192" lon="5.3587134741"><ele>366.40</ele><time>2017-04-09T11:38:37Z</time></trkpt><trkpt lat="43.6810908560" lon="5.3589047492"><ele>365.44</ele><time>2017-04-09T11:38:55Z</time></trkpt><trkpt lat="43.6809977330" lon="5.3591473214"><ele>364.00</ele><time>2017-04-09T11:39:13Z</time></trkpt><trkpt lat="43.6809103098" lon="5.3593602218"><ele>362.55</ele><time>2017-04-09T11:39:30Z</time></trkpt><trkpt lat="43.6807460245" lon="5.3595196456"><ele>360.63</ele><time>2017-04-09T11:39:48Z</time></trkpt><trkpt lat="43.6805529892" lon="5.3596262634"><ele>358.71</ele><time>2017-04-09T11:40:07Z</time></trkpt><trkpt lat="43.6805200484" lon="5.3596500680"><ele>358.71</ele><time>2017-04-09T11:40:11Z</time></trkpt><trkpt lat="43.6803633068" lon="5.3598178737"><ele>357.27</ele><time>2017-04-09T11:40:28Z</time></trkpt><trkpt lat="43.6802314594" lon="5.3599497210"><ele>355.83</ele><time>2017-04-09T11:40:43Z</time></trkpt><trkpt lat="43.6800256837" lon="5.3600656427"><ele>354.86</ele><time>2017-04-09T11:41:01Z</time></trkpt><trkpt lat="43.6798679363" lon="5.3601996694"><ele>353.90</ele><time>2017-04-09T11:41:19Z</time></trkpt><trkpt lat="43.6797062494" lon="5.3603425808"><ele>352.94</ele><time>2017-04-09T11:41:36Z</time></trkpt><trkpt lat="43.6795052513" lon="5.3604889289"><ele>351.50</ele><time>2017-04-09T11:41:56Z</time></trkpt><trkpt lat="43.6793505214" lon="5.3605921939"><ele>350.54</ele><time>2017-04-09T11:42:12Z</time></trkpt><trkpt lat="43.6792654451" lon="5.3606585786"><ele>350.06</ele><time>2017-04-09T11:42:20Z</time></trkpt><trkpt lat="43.6791173369" lon="5.3608050942"><ele>349.10</ele><time>2017-04-09T11:42:38Z</time></trkpt><trkpt lat="43.6789692286" lon="5.3609620873"><ele>347.65</ele><time>2017-04-09T11:42:56Z</time></trkpt><trkpt lat="43.6788358726" lon="5.3611262050"><ele>347.17</ele><time>2017-04-09T11:43:14Z</time></trkpt><trkpt lat="43.6786850821" lon="5.3613061644"><ele>346.21</ele><time>2017-04-09T11:43:32Z</time></trkpt><trkpt lat="43.6785295978" lon="5.3614926618"><ele>345.73</ele><time>2017-04-09T11:43:51Z</time></trkpt><trkpt lat="43.6783727724" lon="5.3617129382"><ele>345.25</ele><time>2017-04-09T11:44:12Z</time></trkpt><trkpt lat="43.6782414280" lon="5.3618693445"><ele>344.77</ele><time>2017-04-09T11:44:29Z</time></trkpt><trkpt lat="43.6781114247" lon="5.3620218951"><ele>343.81</ele><time>2017-04-09T11:44:46Z</time></trkpt><trkpt lat="43.6779642384" lon="5.3621767927"><ele>342.37</ele><time>2017-04-09T11:45:03Z</time></trkpt><trkpt lat="43.6777819321" lon="5.3623370547"><ele>341.41</ele><time>2017-04-09T11:45:21Z</time></trkpt><trkpt lat="43.6776013859" lon="5.3625062015"><ele>341.41</ele><time>2017-04-09T11:45:40Z</time></trkpt><trkpt lat="43.6774295568" lon="5.3626722470"><ele>340.92</ele><time>2017-04-09T11:45:59Z</time></trkpt><trkpt lat="43.6772655230" lon="5.3628048487"><ele>340.92</ele><time>2017-04-09T11:46:18Z</time></trkpt><trkpt lat="43.6771588214" lon="5.3629149031"><ele>341.89</ele><time>2017-04-09T11:46:30Z</time></trkpt><trkpt lat="43.6769865733" lon="5.3630530369"><ele>343.33</ele><time>2017-04-09T11:46:50Z</time></trkpt><trkpt lat="43.6768588331" lon="5.3631744906"><ele>345.25</ele><time>2017-04-09T11:47:07Z</time></trkpt><trkpt lat="43.6767930351" lon="5.3633472417"><ele>346.21</ele><time>2017-04-09T11:47:22Z</time></trkpt><trkpt lat="43.6767674703" lon="5.3634574637"><ele>346.69</ele><time>2017-04-09T11:47:37Z</time></trkpt><trkpt lat="43.6767584179" lon="5.3634531051"><ele>347.17</ele><time>2017-04-09T11:47:56Z</time></trkpt><trkpt lat="43.6767997406" lon="5.3634614870"><ele>347.17</ele><time>2017-04-09T11:48:15Z</time></trkpt><trkpt lat="43.6768101342" lon="5.3634353355"><ele>347.17</ele><time>2017-04-09T11:48:38Z</time></trkpt><trkpt lat="43.6768781114" lon="5.3634873871"><ele>347.17</ele><time>2017-04-09T11:48:57Z</time></trkpt><trkpt lat="43.6769742519" lon="5.3634958528"><ele>347.17</ele><time>2017-04-09T11:49:13Z</time></trkpt><trkpt lat="43.6770515330" lon="5.3635013010"><ele>346.21</ele><time>2017-04-09T11:49:20Z</time></trkpt><trkpt lat="43.6772796884" lon="5.3635060787"><ele>344.77</ele><time>2017-04-09T11:49:42Z</time></trkpt><trkpt lat="43.6773245316" lon="5.3635071684"><ele>344.29</ele><time>2017-04-09T11:49:46Z</time></trkpt><trkpt lat="43.6775233503" lon="5.3634970263"><ele>342.37</ele><time>2017-04-09T11:50:05Z</time></trkpt><trkpt lat="43.6776927486" lon="5.3634806816"><ele>341.41</ele><time>2017-04-09T11:50:21Z</time></trkpt><trkpt lat="43.6778867897" lon="5.3634700365"><ele>339.96</ele><time>2017-04-09T11:50:37Z</time></trkpt><trkpt lat="43.6780936550" lon="5.3634614032"><ele>338.52</ele><time>2017-04-09T11:50:56Z</time></trkpt><trkpt lat="43.6782812420" lon="5.3634138778"><ele>337.08</ele><time>2017-04-09T11:51:13Z</time></trkpt><trkpt lat="43.6784431804" lon="5.3633605689"><ele>335.16</ele><time>2017-04-09T11:51:30Z</time></trkpt><trkpt lat="43.6786570027" lon="5.3633966949"><ele>334.20</ele><time>2017-04-09T11:51:46Z</time></trkpt><trkpt lat="43.6788605992" lon="5.3634213377"><ele>332.75</ele><time>2017-04-09T11:52:05Z</time></trkpt><trkpt lat="43.6791084521" lon="5.3634517640"><ele>330.83</ele><time>2017-04-09T11:52:25Z</time></trkpt><trkpt lat="43.6792371143" lon="5.3634549491"><ele>329.39</ele><time>2017-04-09T11:52:39Z</time></trkpt><trkpt lat="43.6794265453" lon="5.3634294681"><ele>327.95</ele><time>2017-04-09T11:52:57Z</time></trkpt><trkpt lat="43.6796111986" lon="5.3634129558"><ele>327.47</ele><time>2017-04-09T11:53:14Z</time></trkpt><trkpt lat="43.6798408628" lon="5.3634053282"><ele>326.02</ele><time>2017-04-09T11:53:34Z</time></trkpt><trkpt lat="43.6800892185" lon="5.3634255286"><ele>325.06</ele><time>2017-04-09T11:53:55Z</time></trkpt><trkpt lat="43.6802954134" lon="5.3634315636"><ele>323.14</ele><time>2017-04-09T11:54:13Z</time></trkpt><trkpt lat="43.6805137619" lon="5.3633901570"><ele>322.18</ele><time>2017-04-09T11:54:31Z</time></trkpt><trkpt lat="43.6807423364" lon="5.3633781709"><ele>320.26</ele><time>2017-04-09T11:54:51Z</time></trkpt><trkpt lat="43.6809354555" lon="5.3634005506"><ele>318.81</ele><time>2017-04-09T11:55:08Z</time></trkpt><trkpt lat="43.6811712384" lon="5.3633879777"><ele>317.37</ele><time>2017-04-09T11:55:30Z</time></trkpt><trkpt lat="43.6813480128" lon="5.3633938450"><ele>316.89</ele><time>2017-04-09T11:55:45Z</time></trkpt><trkpt lat="43.6815892439" lon="5.3634673543"><ele>314.49</ele><time>2017-04-09T11:56:07Z</time></trkpt><trkpt lat="43.6817616597" lon="5.3635627404"><ele>312.57</ele><time>2017-04-09T11:56:23Z</time></trkpt><trkpt lat="43.6819233466" lon="5.3636805061"><ele>310.64</ele><time>2017-04-09T11:56:41Z</time></trkpt><trkpt lat="43.6820707005" lon="5.3637934104"><ele>308.24</ele><time>2017-04-09T11:56:58Z</time></trkpt><trkpt lat="43.6822145339" lon="5.3639307059"><ele>306.80</ele><time>2017-04-09T11:57:14Z</time></trkpt><trkpt lat="43.6823165417" lon="5.3640687559"><ele>305.36</ele><time>2017-04-09T11:57:28Z</time></trkpt><trkpt lat="43.6824564356" lon="5.3641874436"><ele>303.43</ele><time>2017-04-09T11:57:44Z</time></trkpt><trkpt lat="43.6825706810" lon="5.3642803989"><ele>301.51</ele><time>2017-04-09T11:57:59Z</time></trkpt><trkpt lat="43.6827073898" lon="5.3643601947"><ele>299.59</ele><time>2017-04-09T11:58:14Z</time></trkpt><trkpt lat="43.6828692444" lon="5.3644331172"><ele>297.67</ele><time>2017-04-09T11:58:30Z</time></trkpt><trkpt lat="43.6830048636" lon="5.3645367175"><ele>296.70</ele><time>2017-04-09T11:58:47Z</time></trkpt><trkpt lat="43.6830487009" lon="5.3646121547"><ele>296.22</ele><time>2017-04-09T11:58:54Z</time></trkpt><trkpt lat="43.6831523851" lon="5.3648250550"><ele>294.30</ele><time>2017-04-09T11:59:13Z</time></trkpt><trkpt lat="43.6831867509" lon="5.3648588341"><ele>293.34</ele><time>2017-04-09T11:59:18Z</time></trkpt><trkpt lat="43.6832414009" lon="5.3648866620"><ele>292.38</ele><time>2017-04-09T11:59:24Z</time></trkpt><trkpt lat="43.6834418960" lon="5.3648884222"><ele>289.01</ele><time>2017-04-09T11:59:43Z</time></trkpt><trkpt lat="43.6835924350" lon="5.3648032621"><ele>286.61</ele><time>2017-04-09T11:59:59Z</time></trkpt><trkpt lat="43.6837418005" lon="5.3647336084"><ele>285.17</ele><time>2017-04-09T12:00:15Z</time></trkpt><trkpt lat="43.6839384399" lon="5.3647128213"><ele>283.73</ele><time>2017-04-09T12:00:34Z</time></trkpt><trkpt lat="43.6841303017" lon="5.3647274897"><ele>283.73</ele><time>2017-04-09T12:00:53Z</time></trkpt><trkpt lat="43.6842901446" lon="5.3647459298"><ele>285.17</ele><time>2017-04-09T12:01:10Z</time></trkpt><trkpt lat="43.6844793241" lon="5.3647844866"><ele>284.69</ele><time>2017-04-09T12:01:28Z</time></trkpt><trkpt lat="43.6846863572" lon="5.3648253065"><ele>282.28</ele><time>2017-04-09T12:01:48Z</time></trkpt><trkpt lat="43.6848776322" lon="5.3649014980"><ele>282.28</ele><time>2017-04-09T12:02:07Z</time></trkpt><trkpt lat="43.6850640457" lon="5.3650282323"><ele>281.32</ele><time>2017-04-09T12:02:26Z</time></trkpt><trkpt lat="43.6851921212" lon="5.3651610017"><ele>280.36</ele><time>2017-04-09T12:02:42Z</time></trkpt><trkpt lat="43.6853361223" lon="5.3652620036"><ele>279.88</ele><time>2017-04-09T12:02:58Z</time></trkpt><trkpt lat="43.6854693945" lon="5.3653353453"><ele>280.84</ele><time>2017-04-09T12:03:13Z</time></trkpt><trkpt lat="43.6854781955" lon="5.3653403744"><ele>280.84</ele><time>2017-04-09T12:03:14Z</time></trkpt><trkpt lat="43.6856620107" lon="5.3654099442"><ele>282.28</ele><time>2017-04-09T12:03:34Z</time></trkpt><trkpt lat="43.6858720612" lon="5.3654354252"><ele>283.25</ele><time>2017-04-09T12:03:54Z</time></trkpt><trkpt lat="43.6860574689" lon="5.3654041607"><ele>283.25</ele><time>2017-04-09T12:04:12Z</time></trkpt><trkpt lat="43.6861445569" lon="5.3653846309"><ele>283.25</ele><time>2017-04-09T12:04:27Z</time></trkpt><trkpt lat="43.6861534417" lon="5.3653838765"><ele>283.25</ele><time>2017-04-09T12:04:55Z</time></trkpt><trkpt lat="43.6861531902" lon="5.3653843794"><ele>283.25</ele><time>2017-04-09T12:05:16Z</time></trkpt><trkpt lat="43.6861445569" lon="5.3653992992"><ele>283.25</ele><time>2017-04-09T12:05:49Z</time></trkpt><trkpt lat="43.6861753184" lon="5.3654037416"><ele>283.25</ele><time>2017-04-09T12:06:06Z</time></trkpt><trkpt lat="43.6861841194" lon="5.3654158115"><ele>283.25</ele><time>2017-04-09T12:06:33Z</time></trkpt><trkpt lat="43.6861968599" lon="5.3654185776"><ele>283.25</ele><time>2017-04-09T12:07:00Z</time></trkpt><trkpt lat="43.6862215027" lon="5.3654402867"><ele>283.25</ele><time>2017-04-09T12:07:21Z</time></trkpt><trkpt lat="43.6862935033" lon="5.3654643428"><ele>281.80</ele><time>2017-04-09T12:07:32Z</time></trkpt><trkpt lat="43.6863756459" lon="5.3655079287"><ele>280.36</ele><time>2017-04-09T12:07:47Z</time></trkpt><trkpt lat="43.6864238419" lon="5.3655089345"><ele>279.88</ele><time>2017-04-09T12:08:04Z</time></trkpt><trkpt lat="43.6865491513" lon="5.3655066714"><ele>277.48</ele><time>2017-04-09T12:08:22Z</time></trkpt><trkpt lat="43.6866686773" lon="5.3654812742"><ele>275.56</ele><time>2017-04-09T12:08:38Z</time></trkpt><trkpt lat="43.6868198030" lon="5.3654218465"><ele>273.15</ele><time>2017-04-09T12:08:56Z</time></trkpt><trkpt lat="43.6868325435" lon="5.3653848823"><ele>272.67</ele><time>2017-04-09T12:09:12Z</time></trkpt><trkpt lat="43.6868393328" lon="5.3653810266"><ele>272.67</ele><time>2017-04-09T12:09:31Z</time></trkpt><trkpt lat="43.6868467927" lon="5.3653691243"><ele>272.67</ele><time>2017-04-09T12:09:37Z</time></trkpt><trkpt lat="43.6869187932" lon="5.3653215151"><ele>271.71</ele><time>2017-04-09T12:09:45Z</time></trkpt><trkpt lat="43.6870896164" lon="5.3651409689"><ele>269.31</ele><time>2017-04-09T12:10:04Z</time></trkpt><trkpt lat="43.6871946417" lon="5.3650168329"><ele>267.86</ele><time>2017-04-09T12:10:18Z</time></trkpt><trkpt lat="43.6872958951" lon="5.3648639470"><ele>266.42</ele><time>2017-04-09T12:10:35Z</time></trkpt><trkpt lat="43.6873256508" lon="5.3647569101"><ele>265.46</ele><time>2017-04-09T12:10:45Z</time></trkpt><trkpt lat="43.6873605195" lon="5.3645488713"><ele>264.98</ele><time>2017-04-09T12:11:01Z</time></trkpt><trkpt lat="43.6874284968" lon="5.3643286787"><ele>264.02</ele><time>2017-04-09T12:11:19Z</time></trkpt><trkpt lat="43.6874757707" lon="5.3641431034"><ele>262.10</ele><time>2017-04-09T12:11:36Z</time></trkpt><trkpt lat="43.6875350308" lon="5.3640286066"><ele>260.65</ele><time>2017-04-09T12:11:52Z</time></trkpt><trkpt lat="43.6876084562" lon="5.3638977651"><ele>259.69</ele><time>2017-04-09T12:12:05Z</time></trkpt><trkpt lat="43.6877543852" lon="5.3638204839"><ele>258.25</ele><time>2017-04-09T12:12:21Z</time></trkpt><trkpt lat="43.6877646949" lon="5.3638224956"><ele>258.25</ele><time>2017-04-09T12:12:22Z</time></trkpt><trkpt lat="43.6879643518" lon="5.3638311289"><ele>258.25</ele><time>2017-04-09T12:12:40Z</time></trkpt><trkpt lat="43.6881400365" lon="5.3637192305"><ele>259.21</ele><time>2017-04-09T12:12:58Z</time></trkpt><trkpt lat="43.6883456446" lon="5.3635568731"><ele>259.21</ele><time>2017-04-09T12:13:19Z</time></trkpt><trkpt lat="43.6885243468" lon="5.3635020554"><ele>259.21</ele><time>2017-04-09T12:13:36Z</time></trkpt><trkpt lat="43.6887044739" lon="5.3635077551"><ele>257.29</ele><time>2017-04-09T12:13:53Z</time></trkpt><trkpt lat="43.6888980959" lon="5.3634837829"><ele>255.85</ele><time>2017-04-09T12:14:11Z</time></trkpt><trkpt lat="43.6890741158" lon="5.3634295519"><ele>254.89</ele><time>2017-04-09T12:14:28Z</time></trkpt><trkpt lat="43.6891570129" lon="5.3634016402"><ele>254.89</ele><time>2017-04-09T12:14:40Z</time></trkpt><trkpt lat="43.6892489623" lon="5.3633508459"><ele>254.41</ele><time>2017-04-09T12:14:53Z</time></trkpt><trkpt lat="43.6893637944" lon="5.3632189147"><ele>254.41</ele><time>2017-04-09T12:15:09Z</time></trkpt><trkpt lat="43.6893844977" lon="5.3631914221"><ele>254.41</ele><time>2017-04-09T12:15:13Z</time></trkpt><trkpt lat="43.6893986631" lon="5.3631789330"><ele>253.93</ele><time>2017-04-09T12:15:15Z</time></trkpt><trkpt lat="43.6894837394" lon="5.3632474132"><ele>253.44</ele><time>2017-04-09T12:15:25Z</time></trkpt><trkpt lat="43.6895156745" lon="5.3632978722"><ele>253.44</ele><time>2017-04-09T12:15:30Z</time></trkpt><trkpt lat="43.6895344499" lon="5.3633345012"><ele>253.44</ele><time>2017-04-09T12:15:33Z</time></trkpt><trkpt lat="43.6896702368" lon="5.3634552006"><ele>253.44</ele><time>2017-04-09T12:15:50Z</time></trkpt><trkpt lat="43.6898752581" lon="5.3635213338"><ele>253.44</ele><time>2017-04-09T12:16:09Z</time></trkpt><trkpt lat="43.6900953669" lon="5.3635363374"><ele>252.96</ele><time>2017-04-09T12:16:27Z</time></trkpt><trkpt lat="43.6902894080" lon="5.3634742275"><ele>251.04</ele><time>2017-04-09T12:16:45Z</time></trkpt><trkpt lat="43.6904607341" lon="5.3634185717"><ele>250.56</ele><time>2017-04-09T12:17:01Z</time></trkpt><trkpt lat="43.6906783283" lon="5.3633512650"><ele>249.60</ele><time>2017-04-09T12:17:21Z</time></trkpt><trkpt lat="43.6908502411" lon="5.3632197529"><ele>249.12</ele><time>2017-04-09T12:17:39Z</time></trkpt><trkpt lat="43.6910481378" lon="5.3630878218"><ele>248.64</ele><time>2017-04-09T12:17:58Z</time></trkpt><trkpt lat="43.6912471242" lon="5.3630174976"><ele>247.68</ele><time>2017-04-09T12:18:16Z</time></trkpt><trkpt lat="43.6914512236" lon="5.3630324174"><ele>247.20</ele><time>2017-04-09T12:18:34Z</time></trkpt><trkpt lat="43.6915621161" lon="5.3630228620"><ele>246.72</ele><time>2017-04-09T12:18:45Z</time></trkpt><trkpt lat="43.6917226296" lon="5.3628486861"><ele>245.27</ele><time>2017-04-09T12:19:06Z</time></trkpt><trkpt lat="43.6917959712" lon="5.3628331795"><ele>244.79</ele><time>2017-04-09T12:19:14Z</time></trkpt><trkpt lat="43.6919497792" lon="5.3629803658"><ele>244.31</ele><time>2017-04-09T12:19:32Z</time></trkpt><trkpt lat="43.6921616737" lon="5.3630572278"><ele>244.31</ele><time>2017-04-09T12:19:51Z</time></trkpt><trkpt lat="43.6923532840" lon="5.3630060982"><ele>243.83</ele><time>2017-04-09T12:20:09Z</time></trkpt><trkpt lat="43.6925282143" lon="5.3628913499"><ele>242.87</ele><time>2017-04-09T12:20:26Z</time></trkpt><trkpt lat="43.6926872190" lon="5.3627279028"><ele>242.39</ele><time>2017-04-09T12:20:44Z</time></trkpt><trkpt lat="43.6928468104" lon="5.3625557385"><ele>241.91</ele><time>2017-04-09T12:21:03Z</time></trkpt><trkpt lat="43.6929993611" lon="5.3624247294"><ele>241.43</ele><time>2017-04-09T12:21:19Z</time></trkpt><trkpt lat="43.6930090003" lon="5.3624186106"><ele>241.43</ele><time>2017-04-09T12:21:20Z</time></trkpt><trkpt lat="43.6931405962" lon="5.3622570913"><ele>241.43</ele><time>2017-04-09T12:21:35Z</time></trkpt><trkpt lat="43.6933021154" lon="5.3620703425"><ele>240.95</ele><time>2017-04-09T12:21:54Z</time></trkpt><trkpt lat="43.6933529936" lon="5.3619923070"><ele>240.95</ele><time>2017-04-09T12:22:01Z</time></trkpt><trkpt lat="43.6934152711" lon="5.3618421033"><ele>242.39</ele><time>2017-04-09T12:22:13Z</time></trkpt><trkpt lat="43.6935441848" lon="5.3616152052"><ele>242.39</ele><time>2017-04-09T12:22:32Z</time></trkpt><trkpt lat="43.6936927121" lon="5.3614969365"><ele>242.39</ele><time>2017-04-09T12:22:48Z</time></trkpt><trkpt lat="43.6937465239" lon="5.3614679351"><ele>242.39</ele><time>2017-04-09T12:22:54Z</time></trkpt><trkpt lat="43.6938443407" lon="5.3614009637"><ele>243.35</ele><time>2017-04-09T12:23:10Z</time></trkpt><trkpt lat="43.6939576641" lon="5.3613185696"><ele>243.35</ele><time>2017-04-09T12:23:25Z</time></trkpt><trkpt lat="43.6940527987" lon="5.3612450603"><ele>243.35</ele><time>2017-04-09T12:23:40Z</time></trkpt><trkpt lat="43.6940439139" lon="5.3612481616"><ele>243.35</ele><time>2017-04-09T12:23:56Z</time></trkpt><trkpt lat="43.6940417346" lon="5.3612481616"><ele>243.35</ele><time>2017-04-09T12:24:27Z</time></trkpt><trkpt lat="43.6940439977" lon="5.3612370975"><ele>243.35</ele><time>2017-04-09T12:24:59Z</time></trkpt><trkpt lat="43.6940535530" lon="5.3612522688"><ele>242.87</ele><time>2017-04-09T12:25:22Z</time></trkpt><trkpt lat="43.6940646172" lon="5.3612454794"><ele>242.87</ele><time>2017-04-09T12:25:45Z</time></trkpt><trkpt lat="43.6940516252" lon="5.3612545319"><ele>242.87</ele><time>2017-04-09T12:26:11Z</time></trkpt><trkpt lat="43.6940466799" lon="5.3612461500"><ele>242.87</ele><time>2017-04-09T12:26:36Z</time></trkpt><trkpt lat="43.6940489430" lon="5.3612427972"><ele>242.87</ele><time>2017-04-09T12:26:58Z</time></trkpt><trkpt lat="43.6940580793" lon="5.3612542804"><ele>242.87</ele><time>2017-04-09T12:27:18Z</time></trkpt><trkpt lat="43.6940557323" lon="5.3612281289"><ele>242.87</ele><time>2017-04-09T12:27:42Z</time></trkpt><trkpt lat="43.6940579116" lon="5.3612267878"><ele>242.87</ele><time>2017-04-09T12:28:14Z</time></trkpt><trkpt lat="43.6940663774" lon="5.3612519335"><ele>242.87</ele><time>2017-04-09T12:28:38Z</time></trkpt><trkpt lat="43.6940690596" lon="5.3612557054"><ele>242.87</ele><time>2017-04-09T12:28:55Z</time></trkpt><trkpt lat="43.6940542236" lon="5.3612469882"><ele>242.87</ele><time>2017-04-09T12:29:18Z</time></trkpt><trkpt lat="43.6941195186" lon="5.3611806035"><ele>242.39</ele><time>2017-04-09T12:29:34Z</time></trkpt><trkpt lat="43.6941541359" lon="5.3611501772"><ele>242.39</ele><time>2017-04-09T12:29:38Z</time></trkpt><trkpt lat="43.6943306588" lon="5.3609835450"><ele>242.39</ele><time>2017-04-09T12:29:57Z</time></trkpt><trkpt lat="43.6944836285" lon="5.3608061001"><ele>242.39</ele><time>2017-04-09T12:30:15Z</time></trkpt><trkpt lat="43.6946427170" lon="5.3607336804"><ele>242.39</ele><time>2017-04-09T12:30:30Z</time></trkpt><trkpt lat="43.6948265322" lon="5.3606169205"><ele>242.39</ele><time>2017-04-09T12:30:48Z</time></trkpt><trkpt lat="43.6949834414" lon="5.3604824748"><ele>242.87</ele><time>2017-04-09T12:31:06Z</time></trkpt><trkpt lat="43.6951451283" lon="5.3603512980"><ele>243.35</ele><time>2017-04-09T12:31:23Z</time></trkpt><trkpt lat="43.6953181308" lon="5.3602319397"><ele>243.35</ele><time>2017-04-09T12:31:41Z</time></trkpt><trkpt lat="43.6954890378" lon="5.3601446841"><ele>243.83</ele><time>2017-04-09T12:31:59Z</time></trkpt><trkpt lat="43.6956509762" lon="5.3600698337"><ele>244.79</ele><time>2017-04-09T12:32:18Z</time></trkpt><trkpt lat="43.6956518982" lon="5.3600670677"><ele>245.27</ele><time>2017-04-09T12:32:32Z</time></trkpt><trkpt lat="43.6957620364" lon="5.3600479569"><ele>246.23</ele><time>2017-04-09T12:32:49Z</time></trkpt><trkpt lat="43.6959258188" lon="5.3600689117"><ele>248.16</ele><time>2017-04-09T12:33:06Z</time></trkpt><trkpt lat="43.6960609350" lon="5.3601062950"><ele>249.60</ele><time>2017-04-09T12:33:21Z</time></trkpt><trkpt lat="43.6961823050" lon="5.3601673990"><ele>250.56</ele><time>2017-04-09T12:33:36Z</time></trkpt><trkpt lat="43.6963430699" lon="5.3602260724"><ele>252.00</ele><time>2017-04-09T12:33:53Z</time></trkpt><trkpt lat="43.6964238714" lon="5.3602422494"><ele>252.48</ele><time>2017-04-09T12:34:07Z</time></trkpt><trkpt lat="43.6965776794" lon="5.3602685686"><ele>253.93</ele><time>2017-04-09T12:34:24Z</time></trkpt><trkpt lat="43.6967367679" lon="5.3602820635"><ele>254.41</ele><time>2017-04-09T12:34:38Z</time></trkpt><trkpt lat="43.6969405320" lon="5.3602936305"><ele>252.96</ele><time>2017-04-09T12:34:57Z</time></trkpt><trkpt lat="43.6971296277" lon="5.3603198659"><ele>252.00</ele><time>2017-04-09T12:35:14Z</time></trkpt><trkpt lat="43.6972872075" lon="5.3603108972"><ele>251.52</ele><time>2017-04-09T12:35:30Z</time></trkpt><trkpt lat="43.6974314600" lon="5.3602138348"><ele>250.08</ele><time>2017-04-09T12:35:46Z</time></trkpt><trkpt lat="43.6975762993" lon="5.3601336200"><ele>248.64</ele><time>2017-04-09T12:36:02Z</time></trkpt><trkpt lat="43.6977208033" lon="5.3600653913"><ele>247.20</ele><time>2017-04-09T12:36:17Z</time></trkpt><trkpt lat="43.6978332046" lon="5.3600094002"><ele>246.23</ele><time>2017-04-09T12:36:32Z</time></trkpt><trkpt lat="43.6978387367" lon="5.3600240685"><ele>245.75</ele><time>2017-04-09T12:36:51Z</time></trkpt><trkpt lat="43.6978457775" lon="5.3600006830"><ele>245.75</ele><time>2017-04-09T12:37:19Z</time></trkpt><trkpt lat="43.6978578474" lon="5.3599739447"><ele>245.75</ele><time>2017-04-09T12:37:47Z</time></trkpt><trkpt lat="43.6978550814" lon="5.3599902894"><ele>245.75</ele><time>2017-04-09T12:38:14Z</time></trkpt><trkpt lat="43.6979471985" lon="5.3599486314"><ele>244.79</ele><time>2017-04-09T12:38:34Z</time></trkpt><trkpt lat="43.6981193628" lon="5.3598954063"><ele>242.87</ele><time>2017-04-09T12:38:52Z</time></trkpt><trkpt lat="43.6983294133" lon="5.3598569334"><ele>240.47</ele><time>2017-04-09T12:39:11Z</time></trkpt><trkpt lat="43.6985286511" lon="5.3598364815"><ele>239.51</ele><time>2017-04-09T12:39:28Z</time></trkpt><trkpt lat="43.6986055970" lon="5.3598059714"><ele>239.02</ele><time>2017-04-09T12:39:35Z</time></trkpt><trkpt lat="43.6988125462" lon="5.3597478848"><ele>237.10</ele><time>2017-04-09T12:39:54Z</time></trkpt><trkpt lat="43.6989056692" lon="5.3597126808"><ele>236.62</ele><time>2017-04-09T12:40:03Z</time></trkpt><trkpt lat="43.6989614926" lon="5.3596774768"><ele>236.14</ele><time>2017-04-09T12:40:09Z</time></trkpt><trkpt lat="43.6991520133" lon="5.3595352359"><ele>235.66</ele><time>2017-04-09T12:40:28Z</time></trkpt><trkpt lat="43.6993375048" lon="5.3593862057"><ele>235.18</ele><time>2017-04-09T12:40:47Z</time></trkpt><trkpt lat="43.6995235831" lon="5.3592802584"><ele>234.70</ele><time>2017-04-09T12:41:05Z</time></trkpt><trkpt lat="43.6997339688" lon="5.3592391033"><ele>233.26</ele><time>2017-04-09T12:41:24Z</time></trkpt><trkpt lat="43.6999289319" lon="5.3592251893"><ele>232.30</ele><time>2017-04-09T12:41:42Z</time></trkpt><trkpt lat="43.7001339532" lon="5.3592024744"><ele>230.85</ele><time>2017-04-09T12:42:01Z</time></trkpt><trkpt lat="43.7001705822" lon="5.3591976129"><ele>230.85</ele><time>2017-04-09T12:42:05Z</time></trkpt><trkpt lat="43.7003710773" lon="5.3591139615"><ele>228.45</ele><time>2017-04-09T12:42:24Z</time></trkpt><trkpt lat="43.7005040981" lon="5.3590169828"><ele>227.49</ele><time>2017-04-09T12:42:38Z</time></trkpt><trkpt lat="43.7006843928" lon="5.3589092754"><ele>227.01</ele><time>2017-04-09T12:42:56Z</time></trkpt><trkpt lat="43.7008006498" lon="5.3588786814"><ele>226.05</ele><time>2017-04-09T12:43:08Z</time></trkpt><trkpt lat="43.7008169945" lon="5.3588840459"><ele>226.05</ele><time>2017-04-09T12:43:10Z</time></trkpt><trkpt lat="43.7009386159" lon="5.3588641807"><ele>225.09</ele><time>2017-04-09T12:43:27Z</time></trkpt><trkpt lat="43.7010600697" lon="5.3588299826"><ele>223.64</ele><time>2017-04-09T12:43:43Z</time></trkpt><trkpt lat="43.7011570483" lon="5.3587744944"><ele>222.20</ele><time>2017-04-09T12:43:57Z</time></trkpt><trkpt lat="43.7012504227" lon="5.3587032482"><ele>220.28</ele><time>2017-04-09T12:44:14Z</time></trkpt><trkpt lat="43.7013052404" lon="5.3587162402"><ele>219.80</ele><time>2017-04-09T12:44:33Z</time></trkpt><trkpt lat="43.7014137022" lon="5.3586309962"><ele>218.36</ele><time>2017-04-09T12:44:53Z</time></trkpt><trkpt lat="43.7015526742" lon="5.3585877456"><ele>217.40</ele><time>2017-04-09T12:45:08Z</time></trkpt><trkpt lat="43.7017255090" lon="5.3585522063"><ele>215.95</ele><time>2017-04-09T12:45:25Z</time></trkpt><trkpt lat="43.7018809933" lon="5.3585025854"><ele>214.51</ele><time>2017-04-09T12:45:45Z</time></trkpt><trkpt lat="43.7019077316" lon="5.3584798705"><ele>214.03</ele><time>2017-04-09T12:45:48Z</time></trkpt><trkpt lat="43.7020769622" lon="5.3583461791"><ele>212.11</ele><time>2017-04-09T12:46:06Z</time></trkpt><trkpt lat="43.7022508029" lon="5.3582500387"><ele>209.70</ele><time>2017-04-09T12:46:25Z</time></trkpt><trkpt lat="43.7024221290" lon="5.3581908625"><ele>208.26</ele><time>2017-04-09T12:46:41Z</time></trkpt><trkpt lat="43.7026531342" lon="5.3581100609"><ele>206.34</ele><time>2017-04-09T12:47:01Z</time></trkpt><trkpt lat="43.7028558925" lon="5.3580948897"><ele>204.90</ele><time>2017-04-09T12:47:19Z</time></trkpt><trkpt lat="43.7030671164" lon="5.3580585122"><ele>203.46</ele><time>2017-04-09T12:47:37Z</time></trkpt><trkpt lat="43.7032925058" lon="5.3580119926"><ele>201.05</ele><time>2017-04-09T12:47:57Z</time></trkpt><trkpt lat="43.7034866307" lon="5.3579570074"><ele>199.13</ele><time>2017-04-09T12:48:14Z</time></trkpt><trkpt lat="43.7036826834" lon="5.3579209652"><ele>196.73</ele><time>2017-04-09T12:48:34Z</time></trkpt><trkpt lat="43.7038234156" lon="5.3578970768"><ele>195.77</ele><time>2017-04-09T12:48:47Z</time></trkpt><trkpt lat="43.7040198036" lon="5.3578567598"><ele>194.32</ele><time>2017-04-09T12:49:05Z</time></trkpt><trkpt lat="43.7042576820" lon="5.3578536585"><ele>192.88</ele><time>2017-04-09T12:49:26Z</time></trkpt><trkpt lat="43.7044085562" lon="5.3578604478"><ele>191.92</ele><time>2017-04-09T12:49:39Z</time></trkpt><trkpt lat="43.7045958918" lon="5.3579074703"><ele>190.00</ele><time>2017-04-09T12:49:58Z</time></trkpt><trkpt lat="43.7046996597" lon="5.3579331189"><ele>189.52</ele><time>2017-04-09T12:50:16Z</time></trkpt><trkpt lat="43.7048622686" lon="5.3579437640"><ele>188.56</ele><time>2017-04-09T12:50:33Z</time></trkpt><trkpt lat="43.7050469220" lon="5.3579507209"><ele>188.08</ele><time>2017-04-09T12:50:50Z</time></trkpt><trkpt lat="43.7052313238" lon="5.3578976635"><ele>187.59</ele><time>2017-04-09T12:51:09Z</time></trkpt><trkpt lat="43.7053143047" lon="5.3578918800"><ele>187.11</ele><time>2017-04-09T12:51:23Z</time></trkpt><trkpt lat="43.7053635065" lon="5.3578785527"><ele>186.63</ele><time>2017-04-09T12:51:47Z</time></trkpt><trkpt lat="43.7055952661" lon="5.3578155208"><ele>186.63</ele><time>2017-04-09T12:52:10Z</time></trkpt><trkpt lat="43.7056209985" lon="5.3577964939"><ele>186.63</ele><time>2017-04-09T12:52:13Z</time></trkpt><trkpt lat="43.7056575436" lon="5.3577622119"><ele>186.63</ele><time>2017-04-09T12:52:17Z</time></trkpt><trkpt lat="43.7057579588" lon="5.3576690052"><ele>186.63</ele><time>2017-04-09T12:52:26Z</time></trkpt><trkpt lat="43.7057958450" lon="5.3575652372"><ele>186.63</ele><time>2017-04-09T12:52:32Z</time></trkpt><trkpt lat="43.7061213981" lon="5.3573622275"><ele>186.63</ele><time>2017-04-09T12:52:49Z</time></trkpt><trkpt lat="43.7062676623" lon="5.3572928254"><ele>186.15</ele><time>2017-04-09T12:53:01Z</time></trkpt><trkpt lat="43.7063313648" lon="5.3573020454"><ele>186.15</ele><time>2017-04-09T12:53:10Z</time></trkpt><trkpt lat="43.7065432593" lon="5.3573531751"><ele>186.15</ele><time>2017-04-09T12:53:30Z</time></trkpt><trkpt lat="43.7065403257" lon="5.3573795781"><ele>186.15</ele><time>2017-04-09T12:53:33Z</time></trkpt><trkpt lat="43.7065522280" lon="5.3573849425"><ele>186.15</ele><time>2017-04-09T12:53:34Z</time></trkpt><trkpt lat="43.7066136673" lon="5.3574059810"><ele>186.15</ele><time>2017-04-09T12:53:40Z</time></trkpt><trkpt lat="43.7066238932" lon="5.3574082442"><ele>186.15</ele><time>2017-04-09T12:53:41Z</time></trkpt><trkpt lat="43.7067045271" lon="5.3574436996"><ele>186.15</ele><time>2017-04-09T12:53:58Z</time></trkpt><trkpt lat="43.7067734264" lon="5.3574504051"><ele>185.67</ele><time>2017-04-09T12:54:14Z</time></trkpt><trkpt lat="43.7067699898" lon="5.3574292827"><ele>185.67</ele><time>2017-04-09T12:54:34Z</time></trkpt><trkpt lat="43.7067804672" lon="5.3574500699"><ele>185.67</ele><time>2017-04-09T12:54:53Z</time></trkpt><trkpt lat="43.7067865022" lon="5.3574725334"><ele>185.19</ele><time>2017-04-09T12:55:25Z</time></trkpt><trkpt lat="43.7067723367" lon="5.3574559372"><ele>185.19</ele><time>2017-04-09T12:55:50Z</time></trkpt><trkpt lat="43.7067662179" lon="5.3574599605"><ele>185.19</ele><time>2017-04-09T12:56:15Z</time></trkpt><trkpt lat="43.7066363823" lon="5.3573991917"><ele>185.19</ele><time>2017-04-09T12:56:33Z</time></trkpt><trkpt lat="43.7065213826" lon="5.3573808353"><ele>186.15</ele><time>2017-04-09T12:56:46Z</time></trkpt><trkpt lat="43.7063574325" lon="5.3573227488"><ele>186.15</ele><time>2017-04-09T12:57:04Z</time></trkpt><trkpt lat="43.7062161975" lon="5.3572919033"><ele>186.15</ele><time>2017-04-09T12:57:21Z</time></trkpt><trkpt lat="43.7061674986" lon="5.3573064040"><ele>185.67</ele><time>2017-04-09T12:57:34Z</time></trkpt><trkpt lat="43.7061522435" lon="5.3572973516"><ele>185.67</ele><time>2017-04-09T12:57:57Z</time></trkpt><trkpt lat="43.7061074842" lon="5.3573147021"><ele>183.75</ele><time>2017-04-09T12:58:06Z</time></trkpt><trkpt lat="43.7060970068" lon="5.3573206533"><ele>183.75</ele><time>2017-04-09T12:58:07Z</time></trkpt><trkpt lat="43.7060873676" lon="5.3573292028"><ele>183.75</ele><time>2017-04-09T12:58:08Z</time></trkpt><trkpt lat="43.7060774770" lon="5.3573375009"><ele>183.75</ele><time>2017-04-09T12:58:09Z</time></trkpt><trkpt lat="43.7060661614" lon="5.3573449608"><ele>183.75</ele><time>2017-04-09T12:58:10Z</time></trkpt><trkpt lat="43.7060562707" lon="5.3573523369"><ele>183.75</ele><time>2017-04-09T12:58:11Z</time></trkpt><trkpt lat="43.7058779038" lon="5.3574872855"><ele>183.27</ele><time>2017-04-09T12:58:30Z</time></trkpt><trkpt lat="43.7058030535" lon="5.3575490601"><ele>183.27</ele><time>2017-04-09T12:58:47Z</time></trkpt><trkpt lat="43.7055901531" lon="5.3576736990"><ele>183.27</ele><time>2017-04-09T12:59:06Z</time></trkpt><trkpt lat="43.7054202519" lon="5.3576977551"><ele>183.27</ele><time>2017-04-09T12:59:23Z</time></trkpt><trkpt lat="43.7053719722" lon="5.3576822486"><ele>183.27</ele><time>2017-04-09T12:59:39Z</time></trkpt><trkpt lat="43.7052552961" lon="5.3576436080"><ele>183.27</ele><time>2017-04-09T12:59:54Z</time></trkpt><trkpt lat="43.7052517757" lon="5.3576560132"><ele>184.71</ele><time>2017-04-09T12:59:56Z</time></trkpt><trkpt lat="43.7051243708" lon="5.3575499821"><ele>184.71</ele><time>2017-04-09T13:00:11Z</time></trkpt><trkpt lat="43.7050257158" lon="5.3573908936"><ele>184.71</ele><time>2017-04-09T13:00:24Z</time></trkpt><trkpt lat="43.7050079461" lon="5.3572952561"><ele>185.19</ele><time>2017-04-09T13:00:40Z</time></trkpt><trkpt lat="43.7049776874" lon="5.3570996225"><ele>185.19</ele><time>2017-04-09T13:00:54Z</time></trkpt><trkpt lat="43.7049763463" lon="5.3569028154"><ele>185.67</ele><time>2017-04-09T13:01:10Z</time></trkpt><trkpt lat="43.7050091196" lon="5.3567735665"><ele>186.63</ele><time>2017-04-09T13:01:25Z</time></trkpt><trkpt lat="43.7050087843" lon="5.3567267116"><ele>186.63</ele><time>2017-04-09T13:01:38Z</time></trkpt><trkpt lat="43.7049956247" lon="5.3566925973"><ele>185.19</ele><time>2017-04-09T13:01:42Z</time></trkpt><trkpt lat="43.7049658690" lon="5.3566366900"><ele>184.71</ele><time>2017-04-09T13:01:46Z</time></trkpt><trkpt lat="43.7049161643" lon="5.3564978857"><ele>183.75</ele><time>2017-04-09T13:01:56Z</time></trkpt><trkpt lat="43.7048755120" lon="5.3563967999"><ele>182.79</ele><time>2017-04-09T13:02:04Z</time></trkpt><trkpt lat="43.7048698962" lon="5.3563821316"><ele>182.79</ele><time>2017-04-09T13:02:05Z</time></trkpt><trkpt lat="43.7048021704" lon="5.3561051935"><ele>182.79</ele><time>2017-04-09T13:02:21Z</time></trkpt><trkpt lat="43.7047726661" lon="5.3560160100"><ele>182.31</ele><time>2017-04-09T13:02:37Z</time></trkpt><trkpt lat="43.7047419883" lon="5.3558549099"><ele>182.31</ele><time>2017-04-09T13:02:50Z</time></trkpt><trkpt lat="43.7047469337" lon="5.3555808216"><ele>182.31</ele><time>2017-04-09T13:03:09Z</time></trkpt><trkpt lat="43.7048248854" lon="5.3553460445"><ele>182.31</ele><time>2017-04-09T13:03:26Z</time></trkpt><trkpt lat="43.7049667072" lon="5.3551245108"><ele>182.31</ele><time>2017-04-09T13:03:46Z</time></trkpt><trkpt lat="43.7049908470" lon="5.3550926596"><ele>182.31</ele><time>2017-04-09T13:03:49Z</time></trkpt><trkpt lat="43.7049968820" lon="5.3550794162"><ele>182.31</ele><time>2017-04-09T13:03:50Z</time></trkpt><trkpt lat="43.7050044257" lon="5.3550672624"><ele>182.31</ele><time>2017-04-09T13:03:51Z</time></trkpt><trkpt lat="43.7050150707" lon="5.3550553601"><ele>182.31</ele><time>2017-04-09T13:03:52Z</time></trkpt><trkpt lat="43.7050254643" lon="5.3550446313"><ele>182.31</ele><time>2017-04-09T13:03:53Z</time></trkpt><trkpt lat="43.7050343491" lon="5.3550329804"><ele>182.31</ele><time>2017-04-09T13:03:54Z</time></trkpt><trkpt lat="43.7051516958" lon="5.3547758237"><ele>182.31</ele><time>2017-04-09T13:04:12Z</time></trkpt><trkpt lat="43.7052563019" lon="5.3545257915"><ele>182.31</ele><time>2017-04-09T13:04:30Z</time></trkpt><trkpt lat="43.7052992173" lon="5.3543502744"><ele>183.27</ele><time>2017-04-09T13:04:46Z</time></trkpt><trkpt lat="43.7052922603" lon="5.3541743383"><ele>183.27</ele><time>2017-04-09T13:05:07Z</time></trkpt><trkpt lat="43.7053084373" lon="5.3540838137"><ele>183.75</ele><time>2017-04-09T13:05:13Z</time></trkpt><trkpt lat="43.7053125445" lon="5.3540685587"><ele>183.75</ele><time>2017-04-09T13:05:14Z</time></trkpt><trkpt lat="43.7053167354" lon="5.3540541418"><ele>183.75</ele><time>2017-04-09T13:05:15Z</time></trkpt><trkpt lat="43.7054006383" lon="5.3538233042"><ele>183.75</ele><time>2017-04-09T13:05:32Z</time></trkpt><trkpt lat="43.7055085134" lon="5.3535656445"><ele>183.75</ele><time>2017-04-09T13:05:50Z</time></trkpt><trkpt lat="43.7056127004" lon="5.3533104993"><ele>184.23</ele><time>2017-04-09T13:06:08Z</time></trkpt><trkpt lat="43.7057031412" lon="5.3530291189"><ele>183.75</ele><time>2017-04-09T13:06:26Z</time></trkpt><trkpt lat="43.7057077512" lon="5.3530116007"><ele>183.75</ele><time>2017-04-09T13:06:27Z</time></trkpt><trkpt lat="43.7057111878" lon="5.3529959265"><ele>183.75</ele><time>2017-04-09T13:06:28Z</time></trkpt><trkpt lat="43.7057153787" lon="5.3529787436"><ele>183.75</ele><time>2017-04-09T13:06:29Z</time></trkpt><trkpt lat="43.7057205755" lon="5.3529613093"><ele>183.75</ele><time>2017-04-09T13:06:30Z</time></trkpt><trkpt lat="43.7057270296" lon="5.3529437073"><ele>183.75</ele><time>2017-04-09T13:06:31Z</time></trkpt><trkpt lat="43.7058665045" lon="5.3526104428"><ele>183.75</ele><time>2017-04-09T13:06:52Z</time></trkpt><trkpt lat="43.7058451306" lon="5.3523107897"><ele>184.71</ele><time>2017-04-09T13:07:10Z</time></trkpt><trkpt lat="43.7057101820" lon="5.3520882502"><ele>182.79</ele><time>2017-04-09T13:07:27Z</time></trkpt><trkpt lat="43.7054948509" lon="5.3519149963"><ele>182.79</ele><time>2017-04-09T13:07:46Z</time></trkpt><trkpt lat="43.7052988820" lon="5.3517630324"><ele>182.79</ele><time>2017-04-09T13:08:04Z</time></trkpt><trkpt lat="43.7051553838" lon="5.3516418301"><ele>182.79</ele><time>2017-04-09T13:08:19Z</time></trkpt><trkpt lat="43.7049989775" lon="5.3514834959"><ele>182.79</ele><time>2017-04-09T13:08:36Z</time></trkpt><trkpt lat="43.7048075348" lon="5.3512833361"><ele>182.79</ele><time>2017-04-09T13:08:57Z</time></trkpt><trkpt lat="43.7046330236" lon="5.3511411790"><ele>182.79</ele><time>2017-04-09T13:09:16Z</time></trkpt><trkpt lat="43.7044909503" lon="5.3510065656"><ele>182.79</ele><time>2017-04-09T13:09:34Z</time></trkpt><trkpt lat="43.7043384835" lon="5.3508893028"><ele>182.31</ele><time>2017-04-09T13:09:51Z</time></trkpt><trkpt lat="43.7042026967" lon="5.3507608920"><ele>183.75</ele><time>2017-04-09T13:10:07Z</time></trkpt><trkpt lat="43.7040602043" lon="5.3506748937"><ele>184.71</ele><time>2017-04-09T13:10:23Z</time></trkpt><trkpt lat="43.7039333861" lon="5.3505641688"><ele>186.15</ele><time>2017-04-09T13:10:38Z</time></trkpt><trkpt lat="43.7038038019" lon="5.3503863048"><ele>185.19</ele><time>2017-04-09T13:10:56Z</time></trkpt><trkpt lat="43.7036978547" lon="5.3502236120"><ele>184.23</ele><time>2017-04-09T13:11:12Z</time></trkpt><trkpt lat="43.7035971880" lon="5.3500941955"><ele>185.19</ele><time>2017-04-09T13:11:28Z</time></trkpt><trkpt lat="43.7034817692" lon="5.3499642760"><ele>186.15</ele><time>2017-04-09T13:11:43Z</time></trkpt><trkpt lat="43.7033321522" lon="5.3497986495"><ele>186.15</ele><time>2017-04-09T13:12:00Z</time></trkpt><trkpt lat="43.7032488361" lon="5.3496984858"><ele>186.15</ele><time>2017-04-09T13:12:10Z</time></trkpt><trkpt lat="43.7031969521" lon="5.3496478591"><ele>186.15</ele><time>2017-04-09T13:12:24Z</time></trkpt><trkpt lat="43.7030752469" lon="5.3494063765"><ele>186.15</ele><time>2017-04-09T13:12:42Z</time></trkpt><trkpt lat="43.7030296493" lon="5.3492994234"><ele>186.15</ele><time>2017-04-09T13:12:51Z</time></trkpt><trkpt lat="43.7030352652" lon="5.3492875211"><ele>186.15</ele><time>2017-04-09T13:12:52Z</time></trkpt><trkpt lat="43.7030350976" lon="5.3492612857"><ele>184.71</ele><time>2017-04-09T13:12:55Z</time></trkpt><trkpt lat="43.7030138914" lon="5.3492578492"><ele>185.19</ele><time>2017-04-09T13:13:12Z</time></trkpt><trkpt lat="43.7030034978" lon="5.3492518142"><ele>185.19</ele><time>2017-04-09T13:13:13Z</time></trkpt><trkpt lat="43.7029945292" lon="5.3492418397"><ele>185.19</ele><time>2017-04-09T13:13:14Z</time></trkpt><trkpt lat="43.7029853929" lon="5.3492310271"><ele>185.19</ele><time>2017-04-09T13:13:15Z</time></trkpt><trkpt lat="43.7029693834" lon="5.3492095694"><ele>185.19</ele><time>2017-04-09T13:13:17Z</time></trkpt><trkpt lat="43.7028727401" lon="5.3490457032"><ele>185.19</ele><time>2017-04-09T13:13:30Z</time></trkpt><trkpt lat="43.7027141545" lon="5.3488887101"><ele>185.19</ele><time>2017-04-09T13:13:48Z</time></trkpt><trkpt lat="43.7026629411" lon="5.3488589544"><ele>185.67</ele><time>2017-04-09T13:13:54Z</time></trkpt><trkpt lat="43.7026564032" lon="5.3488460463"><ele>185.67</ele><time>2017-04-09T13:13:55Z</time></trkpt><trkpt lat="43.7025595084" lon="5.3486759774"><ele>185.67</ele><time>2017-04-09T13:14:11Z</time></trkpt><trkpt lat="43.7025647052" lon="5.3486650810"><ele>185.67</ele><time>2017-04-09T13:14:12Z</time></trkpt><trkpt lat="43.7025710754" lon="5.3486541007"><ele>185.67</ele><time>2017-04-09T13:14:13Z</time></trkpt><trkpt lat="43.7027242128" lon="5.3485046513"><ele>185.67</ele><time>2017-04-09T13:14:30Z</time></trkpt><trkpt lat="43.7029006518" lon="5.3483380191"><ele>185.19</ele><time>2017-04-09T13:14:49Z</time></trkpt><trkpt lat="43.7031084392" lon="5.3481168207"><ele>185.19</ele><time>2017-04-09T13:15:10Z</time></trkpt><trkpt lat="43.7032929249" lon="5.3479812853"><ele>185.19</ele><time>2017-04-09T13:15:28Z</time></trkpt><trkpt lat="43.7034690287" lon="5.3480195068"><ele>185.19</ele><time>2017-04-09T13:15:47Z</time></trkpt><trkpt lat="43.7034836970" lon="5.3480363544"><ele>185.19</ele><time>2017-04-09T13:15:49Z</time></trkpt><trkpt lat="43.7035397720" lon="5.3480752464"><ele>185.19</ele><time>2017-04-09T13:16:02Z</time></trkpt><trkpt lat="43.7036655005" lon="5.3482009750"><ele>183.75</ele><time>2017-04-09T13:16:20Z</time></trkpt><trkpt lat="43.7038159557" lon="5.3483283799"><ele>183.27</ele><time>2017-04-09T13:16:36Z</time></trkpt><trkpt lat="43.7039737869" lon="5.3484244365"><ele>182.79</ele><time>2017-04-09T13:16:53Z</time></trkpt><trkpt lat="43.7040671613" lon="5.3484650049"><ele>182.79</ele><time>2017-04-09T13:17:09Z</time></trkpt><trkpt lat="43.7041733600" lon="5.3485184815"><ele>182.79</ele><time>2017-04-09T13:17:26Z</time></trkpt><trkpt lat="43.7041969132" lon="5.3485128656"><ele>182.79</ele><time>2017-04-09T13:17:41Z</time></trkpt><trkpt lat="43.7041960750" lon="5.3485079203"><ele>182.79</ele><time>2017-04-09T13:18:07Z</time></trkpt><trkpt lat="43.7041797303" lon="5.3485313896"><ele>182.79</ele><time>2017-04-09T13:18:32Z</time></trkpt><trkpt lat="43.7041817419" lon="5.3485444654"><ele>182.79</ele><time>2017-04-09T13:19:02Z</time></trkpt><trkpt lat="43.7042020261" lon="5.3485258576"><ele>182.79</ele><time>2017-04-09T13:19:35Z</time></trkpt><trkpt lat="43.7042108271" lon="5.3485128656"><ele>182.79</ele><time>2017-04-09T13:19:57Z</time></trkpt><trkpt lat="43.7042109948" lon="5.3484994546"><ele>182.79</ele><time>2017-04-09T13:20:23Z</time></trkpt><trkpt lat="43.7042126711" lon="5.3485395201"><ele>182.79</ele><time>2017-04-09T13:20:43Z</time></trkpt><trkpt lat="43.7043701671" lon="5.3486390971"><ele>182.79</ele><time>2017-04-09T13:20:59Z</time></trkpt><trkpt lat="43.7045614421" lon="5.3487620596"><ele>182.79</ele><time>2017-04-09T13:21:19Z</time></trkpt><trkpt lat="43.7047438323" lon="5.3488649055"><ele>182.79</ele><time>2017-04-09T13:21:38Z</time></trkpt><trkpt lat="43.7049045973" lon="5.3489609621"><ele>182.79</ele><time>2017-04-09T13:21:56Z</time></trkpt><trkpt lat="43.7050748337" lon="5.3490651492"><ele>182.79</ele><time>2017-04-09T13:22:13Z</time></trkpt><trkpt lat="43.7052444834" lon="5.3491687495"><ele>182.79</ele><time>2017-04-09T13:22:30Z</time></trkpt><trkpt lat="43.7054101937" lon="5.3493060451"><ele>182.79</ele><time>2017-04-09T13:22:47Z</time></trkpt><trkpt lat="43.7055898178" lon="5.3494699951"><ele>182.79</ele><time>2017-04-09T13:23:05Z</time></trkpt><trkpt lat="43.7057339028" lon="5.3496141639"><ele>182.31</ele><time>2017-04-09T13:23:21Z</time></trkpt><trkpt lat="43.7059025466" lon="5.3497736715"><ele>182.31</ele><time>2017-04-09T13:23:40Z</time></trkpt><trkpt lat="43.7060358189" lon="5.3499270603"><ele>182.31</ele><time>2017-04-09T13:23:56Z</time></trkpt><trkpt lat="43.7061011977" lon="5.3500442393"><ele>182.31</ele><time>2017-04-09T13:24:12Z</time></trkpt><trkpt lat="43.7062124256" lon="5.3501462471"><ele>182.31</ele><time>2017-04-09T13:24:29Z</time></trkpt><trkpt lat="43.7063746154" lon="5.3503463231"><ele>182.31</ele><time>2017-04-09T13:24:47Z</time></trkpt><trkpt lat="43.7065375596" lon="5.3505359218"><ele>182.79</ele><time>2017-04-09T13:25:05Z</time></trkpt><trkpt lat="43.7067580037" lon="5.3506329004"><ele>182.79</ele><time>2017-04-09T13:25:24Z</time></trkpt><trkpt lat="43.7068360392" lon="5.3506177291"><ele>182.79</ele><time>2017-04-09T13:25:31Z</time></trkpt><trkpt lat="43.7068461813" lon="5.3506111074"><ele>182.79</ele><time>2017-04-09T13:25:32Z</time></trkpt><trkpt lat="43.7070028391" lon="5.3504980356"><ele>182.79</ele><time>2017-04-09T13:25:48Z</time></trkpt><trkpt lat="43.7071782723" lon="5.3503632545"><ele>182.79</ele><time>2017-04-09T13:26:06Z</time></trkpt><trkpt lat="43.7072242890" lon="5.3503195848"><ele>182.79</ele><time>2017-04-09T13:26:26Z</time></trkpt><trkpt lat="43.7073145621" lon="5.3502656892"><ele>182.31</ele><time>2017-04-09T13:26:43Z</time></trkpt><trkpt lat="43.7073295657" lon="5.3502401244"><ele>182.31</ele><time>2017-04-09T13:27:08Z</time></trkpt><trkpt lat="43.7072946131" lon="5.3502222709"><ele>184.71</ele><time>2017-04-09T13:27:27Z</time></trkpt><trkpt lat="43.7072965410" lon="5.3501972090"><ele>186.63</ele><time>2017-04-09T13:27:41Z</time></trkpt><trkpt lat="43.7073065992" lon="5.3501403797"><ele>187.11</ele><time>2017-04-09T13:27:48Z</time></trkpt><trkpt lat="43.7072407175" lon="5.3500630986"><ele>187.11</ele><time>2017-04-09T13:28:03Z</time></trkpt><trkpt lat="43.7072357722" lon="5.3500932734"><ele>187.11</ele><time>2017-04-09T13:28:25Z</time></trkpt><trkpt lat="43.7071966287" lon="5.3501148149"><ele>187.11</ele><time>2017-04-09T13:28:45Z</time></trkpt><trkpt lat="43.7071886659" lon="5.3500606678"><ele>187.11</ele><time>2017-04-09T13:29:09Z</time></trkpt><trkpt lat="43.7071853969" lon="5.3500547167"><ele>187.59</ele><time>2017-04-09T13:29:33Z</time></trkpt><trkpt lat="43.7071791943" lon="5.3500392102"><ele>187.59</ele><time>2017-04-09T13:30:06Z</time></trkpt><trkpt lat="43.7071638554" lon="5.3499610908"><ele>187.59</ele><time>2017-04-09T13:30:30Z</time></trkpt><trkpt lat="43.7071967963" lon="5.3497577459"><ele>189.52</ele><time>2017-04-09T13:30:47Z</time></trkpt><trkpt lat="43.7072211877" lon="5.3496438358"><ele>190.48</ele><time>2017-04-09T13:30:56Z</time></trkpt><trkpt lat="43.7072795257" lon="5.3494409099"><ele>192.40</ele><time>2017-04-09T13:31:12Z</time></trkpt><trkpt lat="43.7073935196" lon="5.3492562566"><ele>192.88</ele><time>2017-04-09T13:31:27Z</time></trkpt><trkpt lat="43.7074898276" lon="5.3491088189"><ele>193.36</ele><time>2017-04-09T13:31:42Z</time></trkpt><trkpt lat="43.7075761613" lon="5.3489973396"><ele>193.36</ele><time>2017-04-09T13:31:53Z</time></trkpt><trkpt lat="43.7076982018" lon="5.3488124348"><ele>193.36</ele><time>2017-04-09T13:32:09Z</time></trkpt><trkpt lat="43.7078284565" lon="5.3486088384"><ele>193.36</ele><time>2017-04-09T13:32:26Z</time></trkpt><trkpt lat="43.7079323083" lon="5.3484736383"><ele>192.88</ele><time>2017-04-09T13:32:42Z</time></trkpt><trkpt lat="43.7081128545" lon="5.3483069222"><ele>192.88</ele><time>2017-04-09T13:32:59Z</time></trkpt><trkpt lat="43.7082018703" lon="5.3481645137"><ele>192.88</ele><time>2017-04-09T13:33:10Z</time></trkpt><trkpt lat="43.7083303649" lon="5.3479908407"><ele>192.88</ele><time>2017-04-09T13:33:25Z</time></trkpt><trkpt lat="43.7084245775" lon="5.3478193469"><ele>192.88</ele><time>2017-04-09T13:33:40Z</time></trkpt><trkpt lat="43.7084816583" lon="5.3476117272"><ele>194.32</ele><time>2017-04-09T13:33:56Z</time></trkpt><trkpt lat="43.7084333785" lon="5.3473975696"><ele>196.73</ele><time>2017-04-09T13:34:13Z</time></trkpt><trkpt lat="43.7084260024" lon="5.3471840825"><ele>198.17</ele><time>2017-04-09T13:34:29Z</time></trkpt><trkpt lat="43.7084871065" lon="5.3469565138"><ele>200.09</ele><time>2017-04-09T13:34:47Z</time></trkpt><trkpt lat="43.7085773796" lon="5.3467571083"><ele>201.05</ele><time>2017-04-09T13:35:04Z</time></trkpt><trkpt lat="43.7086606957" lon="5.3465403523"><ele>202.49</ele><time>2017-04-09T13:35:22Z</time></trkpt><trkpt lat="43.7087652180" lon="5.3464531805"><ele>203.46</ele><time>2017-04-09T13:35:36Z</time></trkpt><trkpt lat="43.7089290842" lon="5.3463552799"><ele>202.98</ele><time>2017-04-09T13:35:50Z</time></trkpt><trkpt lat="43.7090760190" lon="5.3462861292"><ele>202.98</ele><time>2017-04-09T13:36:05Z</time></trkpt><trkpt lat="43.7091058586" lon="5.3462450579"><ele>202.49</ele><time>2017-04-09T13:36:22Z</time></trkpt><trkpt lat="43.7092062738" lon="5.3461518511"><ele>202.49</ele><time>2017-04-09T13:36:34Z</time></trkpt><trkpt lat="43.7093031686" lon="5.3459336702"><ele>201.53</ele><time>2017-04-09T13:36:51Z</time></trkpt><trkpt lat="43.7093805335" lon="5.3457867354"><ele>200.09</ele><time>2017-04-09T13:37:11Z</time></trkpt><trkpt lat="43.7095469143" lon="5.3458003141"><ele>198.65</ele><time>2017-04-09T13:37:28Z</time></trkpt><trkpt lat="43.7095923442" lon="5.3458356019"><ele>198.17</ele><time>2017-04-09T13:37:33Z</time></trkpt><trkpt lat="43.7096077669" lon="5.3458584007"><ele>198.17</ele><time>2017-04-09T13:37:35Z</time></trkpt><trkpt lat="43.7096987106" lon="5.3459080216"><ele>197.69</ele><time>2017-04-09T13:37:43Z</time></trkpt><trkpt lat="43.7097180728" lon="5.3459157329"><ele>197.69</ele><time>2017-04-09T13:37:45Z</time></trkpt><trkpt lat="43.7099023908" lon="5.3458779305"><ele>197.69</ele><time>2017-04-09T13:38:03Z</time></trkpt><trkpt lat="43.7099810969" lon="5.3458263818"><ele>197.69</ele><time>2017-04-09T13:38:10Z</time></trkpt><trkpt lat="43.7099891435" lon="5.3458156530"><ele>197.69</ele><time>2017-04-09T13:38:11Z</time></trkpt><trkpt lat="43.7100609764" lon="5.3456333466"><ele>195.77</ele><time>2017-04-09T13:38:27Z</time></trkpt><trkpt lat="43.7101102620" lon="5.3455400560"><ele>194.80</ele><time>2017-04-09T13:38:35Z</time></trkpt><trkpt lat="43.7101152074" lon="5.3455228731"><ele>194.80</ele><time>2017-04-09T13:38:36Z</time></trkpt><trkpt lat="43.7101954222" lon="5.3453637008"><ele>193.36</ele><time>2017-04-09T13:38:50Z</time></trkpt><trkpt lat="43.7102785707" lon="5.3451867588"><ele>191.92</ele><time>2017-04-09T13:39:06Z</time></trkpt><trkpt lat="43.7103476375" lon="5.3449981660"><ele>189.52</ele><time>2017-04-09T13:39:22Z</time></trkpt><trkpt lat="43.7104269303" lon="5.3448285162"><ele>187.59</ele><time>2017-04-09T13:39:36Z</time></trkpt><trkpt lat="43.7105368171" lon="5.3446319606"><ele>185.67</ele><time>2017-04-09T13:39:51Z</time></trkpt><trkpt lat="43.7106280960" lon="5.3444724530"><ele>182.79</ele><time>2017-04-09T13:40:06Z</time></trkpt><trkpt lat="43.7107758690" lon="5.3443300445"><ele>181.35</ele><time>2017-04-09T13:40:21Z</time></trkpt><trkpt lat="43.7109078001" lon="5.3442249354"><ele>181.35</ele><time>2017-04-09T13:40:36Z</time></trkpt><trkpt lat="43.7110764440" lon="5.3441516776"><ele>181.35</ele><time>2017-04-09T13:40:51Z</time></trkpt><trkpt lat="43.7112789508" lon="5.3441277053"><ele>181.35</ele><time>2017-04-09T13:41:09Z</time></trkpt><trkpt lat="43.7114326749" lon="5.3441479057"><ele>181.35</ele><time>2017-04-09T13:41:26Z</time></trkpt><trkpt lat="43.7115558889" lon="5.3441749793"><ele>181.35</ele><time>2017-04-09T13:41:40Z</time></trkpt><trkpt lat="43.7117421348" lon="5.3442344908"><ele>180.87</ele><time>2017-04-09T13:41:58Z</time></trkpt><trkpt lat="43.7119776662" lon="5.3442882188"><ele>180.87</ele><time>2017-04-09T13:42:18Z</time></trkpt><trkpt lat="43.7121362519" lon="5.3442884702"><ele>180.38</ele><time>2017-04-09T13:42:40Z</time></trkpt><trkpt lat="43.7122558616" lon="5.3442313056"><ele>180.38</ele><time>2017-04-09T13:42:52Z</time></trkpt><trkpt lat="43.7123172171" lon="5.3439736459"><ele>180.38</ele><time>2017-04-09T13:43:12Z</time></trkpt><trkpt lat="43.7123296224" lon="5.3438511863"><ele>180.38</ele><time>2017-04-09T13:43:20Z</time></trkpt><trkpt lat="43.7123395968" lon="5.3435235377"><ele>180.38</ele><time>2017-04-09T13:43:41Z</time></trkpt><trkpt lat="43.7123753037" lon="5.3432512097"><ele>180.38</ele><time>2017-04-09T13:43:58Z</time></trkpt><trkpt lat="43.7123933248" lon="5.3429995850"><ele>180.38</ele><time>2017-04-09T13:44:13Z</time></trkpt><trkpt lat="43.7124134414" lon="5.3427330405"><ele>180.38</ele><time>2017-04-09T13:44:31Z</time></trkpt><trkpt lat="43.7124656606" lon="5.3424506541"><ele>179.90</ele><time>2017-04-09T13:44:48Z</time></trkpt><trkpt lat="43.7124615535" lon="5.3423394263"><ele>183.27</ele><time>2017-04-09T13:45:03Z</time></trkpt><trkpt lat="43.7124386709" lon="5.3423319664"><ele>184.23</ele><time>2017-04-09T13:45:18Z</time></trkpt><trkpt lat="43.7124524172" lon="5.3422981035"><ele>184.71</ele><time>2017-04-09T13:45:35Z</time></trkpt><trkpt lat="43.7124446221" lon="5.3423102573"><ele>184.71</ele><time>2017-04-09T13:45:56Z</time></trkpt><trkpt lat="43.7124639004" lon="5.3423145320"><ele>184.71</ele><time>2017-04-09T13:46:21Z</time></trkpt><trkpt lat="43.7124626432" lon="5.3423481435"><ele>184.71</ele><time>2017-04-09T13:46:43Z</time></trkpt><trkpt lat="43.7124738749" lon="5.3423716966"><ele>185.19</ele><time>2017-04-09T13:47:10Z</time></trkpt><trkpt lat="43.7124704383" lon="5.3423422761"><ele>185.19</ele><time>2017-04-09T13:47:34Z</time></trkpt><trkpt lat="43.7124924827" lon="5.3422939964"><ele>185.19</ele><time>2017-04-09T13:48:01Z</time></trkpt><trkpt lat="43.7124927342" lon="5.3422754724"><ele>185.19</ele><time>2017-04-09T13:48:17Z</time></trkpt><trkpt lat="43.7124802452" lon="5.3422667552"><ele>185.19</ele><time>2017-04-09T13:48:48Z</time></trkpt><trkpt lat="43.7124647386" lon="5.3423005342"><ele>185.19</ele><time>2017-04-09T13:49:10Z</time></trkpt><trkpt lat="43.7124646548" lon="5.3423016239"><ele>185.19</ele><time>2017-04-09T13:49:40Z</time></trkpt><trkpt lat="43.7124611344" lon="5.3423312958"><ele>185.19</ele><time>2017-04-09T13:49:59Z</time></trkpt><trkpt lat="43.7124727853" lon="5.3423825931"><ele>185.19</ele><time>2017-04-09T13:50:37Z</time></trkpt><trkpt lat="43.7124694325" lon="5.3423418570"><ele>185.19</ele><time>2017-04-09T13:51:03Z</time></trkpt><trkpt lat="43.7124628946" lon="5.3422977682"><ele>185.67</ele><time>2017-04-09T13:51:21Z</time></trkpt><trkpt lat="43.7124586198" lon="5.3422794957"><ele>185.67</ele><time>2017-04-09T13:51:47Z</time></trkpt><trkpt lat="43.7124889623" lon="5.3423119336"><ele>185.67</ele><time>2017-04-09T13:52:10Z</time></trkpt><trkpt lat="43.7124956679" lon="5.3423182201"><ele>184.23</ele><time>2017-04-09T13:52:11Z</time></trkpt><trkpt lat="43.7126098294" lon="5.3423769772"><ele>182.31</ele><time>2017-04-09T13:52:26Z</time></trkpt><trkpt lat="43.7127349712" lon="5.3424319625"><ele>179.90</ele><time>2017-04-09T13:52:41Z</time></trkpt><trkpt lat="43.7128306087" lon="5.3425216489"><ele>178.46</ele><time>2017-04-09T13:52:53Z</time></trkpt><trkpt lat="43.7128913775" lon="5.3425729461"><ele>177.98</ele><time>2017-04-09T13:53:00Z</time></trkpt><trkpt lat="43.7130736839" lon="5.3426203877"><ele>176.54</ele><time>2017-04-09T13:53:18Z</time></trkpt><trkpt lat="43.7131033558" lon="5.3426091559"><ele>176.06</ele><time>2017-04-09T13:53:21Z</time></trkpt><trkpt lat="43.7131343689" lon="5.3425900452"><ele>175.58</ele><time>2017-04-09T13:53:24Z</time></trkpt><trkpt lat="43.7131740153" lon="5.3425540030"><ele>175.58</ele><time>2017-04-09T13:53:28Z</time></trkpt><trkpt lat="43.7132914457" lon="5.3422856983"><ele>174.62</ele><time>2017-04-09T13:53:48Z</time></trkpt><trkpt lat="43.7133897655" lon="5.3420852870"><ele>172.69</ele><time>2017-04-09T13:54:05Z</time></trkpt><trkpt lat="43.7134075351" lon="5.3420589678"><ele>172.69</ele><time>2017-04-09T13:54:08Z</time></trkpt><trkpt lat="43.7135164998" lon="5.3419306409"><ele>168.85</ele><time>2017-04-09T13:54:22Z</time></trkpt><trkpt lat="43.7136901729" lon="5.3418166470"><ele>166.93</ele><time>2017-04-09T13:54:40Z</time></trkpt><trkpt lat="43.7138320785" lon="5.3418571316"><ele>165.96</ele><time>2017-04-09T13:54:55Z</time></trkpt><trkpt lat="43.7139806058" lon="5.3419007175"><ele>163.56</ele><time>2017-04-09T13:55:10Z</time></trkpt><trkpt lat="43.7140576355" lon="5.3418888152"><ele>163.56</ele><time>2017-04-09T13:55:24Z</time></trkpt><trkpt lat="43.7140652630" lon="5.3418883961"><ele>163.56</ele><time>2017-04-09T13:55:25Z</time></trkpt><trkpt lat="43.7141426280" lon="5.3417756595"><ele>163.08</ele><time>2017-04-09T13:55:39Z</time></trkpt><trkpt lat="43.7141557038" lon="5.3417422157"><ele>163.08</ele><time>2017-04-09T13:55:46Z</time></trkpt><trkpt lat="43.7142521795" lon="5.3414802812"><ele>163.08</ele><time>2017-04-09T13:56:06Z</time></trkpt><trkpt lat="43.7143417820" lon="5.3412552271"><ele>163.08</ele><time>2017-04-09T13:56:23Z</time></trkpt><trkpt lat="43.7144858669" lon="5.3410823923"><ele>163.08</ele><time>2017-04-09T13:56:40Z</time></trkpt><trkpt lat="43.7145356555" lon="5.3410180192"><ele>163.08</ele><time>2017-04-09T13:56:55Z</time></trkpt><trkpt lat="43.7146151159" lon="5.3409037739"><ele>162.12</ele><time>2017-04-09T13:57:09Z</time></trkpt><trkpt lat="43.7146502361" lon="5.3408440109"><ele>161.64</ele><time>2017-04-09T13:57:26Z</time></trkpt><trkpt lat="43.7146401778" lon="5.3408462740"><ele>161.64</ele><time>2017-04-09T13:57:48Z</time></trkpt><trkpt lat="43.7146095000" lon="5.3407191206"><ele>161.64</ele><time>2017-04-09T13:58:04Z</time></trkpt><trkpt lat="43.7146051414" lon="5.3406552505"><ele>161.64</ele><time>2017-04-09T13:58:26Z</time></trkpt><trkpt lat="43.7146562710" lon="5.3405684140"><ele>161.64</ele><time>2017-04-09T13:58:39Z</time></trkpt><trkpt lat="43.7147103343" lon="5.3404200543"><ele>161.64</ele><time>2017-04-09T13:58:53Z</time></trkpt><trkpt lat="43.7147692591" lon="5.3402018733"><ele>161.64</ele><time>2017-04-09T13:59:11Z</time></trkpt><trkpt lat="43.7147908006" lon="5.3400017973"><ele>162.60</ele><time>2017-04-09T13:59:27Z</time></trkpt><trkpt lat="43.7148070615" lon="5.3398232628"><ele>163.08</ele><time>2017-04-09T13:59:39Z</time></trkpt><trkpt lat="43.7148362305" lon="5.3395576403"><ele>163.08</ele><time>2017-04-09T13:59:58Z</time></trkpt><trkpt lat="43.7148433551" lon="5.3392559756"><ele>162.60</ele><time>2017-04-09T14:00:16Z</time></trkpt><trkpt lat="43.7148296926" lon="5.3389612678"><ele>163.08</ele><time>2017-04-09T14:00:36Z</time></trkpt><trkpt lat="43.7148255017" lon="5.3387336992"><ele>163.08</ele><time>2017-04-09T14:00:50Z</time></trkpt><trkpt lat="43.7148123421" lon="5.3385438491"><ele>163.08</ele><time>2017-04-09T14:01:03Z</time></trkpt><trkpt lat="43.7148103304" lon="5.3382990975"><ele>163.08</ele><time>2017-04-09T14:01:20Z</time></trkpt><trkpt lat="43.7147782277" lon="5.3380276915"><ele>162.60</ele><time>2017-04-09T14:01:40Z</time></trkpt><trkpt lat="43.7147540040" lon="5.3377093468"><ele>163.08</ele><time>2017-04-09T14:01:59Z</time></trkpt><trkpt lat="43.7147517409" lon="5.3374439757"><ele>162.60</ele><time>2017-04-09T14:02:16Z</time></trkpt><trkpt lat="43.7147338036" lon="5.3372553829"><ele>162.60</ele><time>2017-04-09T14:02:28Z</time></trkpt><trkpt lat="43.7147073168" lon="5.3369997349"><ele>162.60</ele><time>2017-04-09T14:02:44Z</time></trkpt><trkpt lat="43.7146400940" lon="5.3367408179"><ele>162.60</ele><time>2017-04-09T14:03:02Z</time></trkpt><trkpt lat="43.7146011181" lon="5.3365183622"><ele>162.60</ele><time>2017-04-09T14:03:17Z</time></trkpt><trkpt lat="43.7145717815" lon="5.3363587707"><ele>163.08</ele><time>2017-04-09T14:03:33Z</time></trkpt><trkpt lat="43.7144948356" lon="5.3360059764"><ele>163.08</ele><time>2017-04-09T14:03:53Z</time></trkpt><trkpt lat="43.7144633196" lon="5.3357002884"><ele>163.08</ele><time>2017-04-09T14:04:14Z</time></trkpt><trkpt lat="43.7144155428" lon="5.3354473226"><ele>163.56</ele><time>2017-04-09T14:04:32Z</time></trkpt><trkpt lat="43.7143937498" lon="5.3351990506"><ele>163.08</ele><time>2017-04-09T14:04:49Z</time></trkpt><trkpt lat="43.7143821828" lon="5.3349197656"><ele>164.52</ele><time>2017-04-09T14:05:08Z</time></trkpt><trkpt lat="43.7143673468" lon="5.3346109763"><ele>164.04</ele><time>2017-04-09T14:05:28Z</time></trkpt><trkpt lat="43.7143686879" lon="5.3343671467"><ele>164.04</ele><time>2017-04-09T14:05:45Z</time></trkpt><trkpt lat="43.7143794168" lon="5.3341140132"><ele>164.52</ele><time>2017-04-09T14:06:02Z</time></trkpt><trkpt lat="43.7143878825" lon="5.3338121809"><ele>165.00</ele><time>2017-04-09T14:06:23Z</time></trkpt><trkpt lat="43.7144073285" lon="5.3335620649"><ele>165.48</ele><time>2017-04-09T14:06:41Z</time></trkpt><trkpt lat="43.7144030537" lon="5.3335018829"><ele>165.00</ele><time>2017-04-09T14:06:54Z</time></trkpt><trkpt lat="43.7144142017" lon="5.3334560338"><ele>165.00</ele><time>2017-04-09T14:07:11Z</time></trkpt><trkpt lat="43.7144613918" lon="5.3333061654"><ele>165.96</ele><time>2017-04-09T14:07:27Z</time></trkpt><trkpt lat="43.7144686002" lon="5.3330292273"><ele>165.96</ele><time>2017-04-09T14:07:46Z</time></trkpt><trkpt lat="43.7145066541" lon="5.3327666223"><ele>165.96</ele><time>2017-04-09T14:08:06Z</time></trkpt><trkpt lat="43.7145611364" lon="5.3325745091"><ele>164.52</ele><time>2017-04-09T14:08:22Z</time></trkpt><trkpt lat="43.7146203127" lon="5.3323493712"><ele>163.56</ele><time>2017-04-09T14:08:39Z</time></trkpt><trkpt lat="43.7147014495" lon="5.3321762010"><ele>163.56</ele><time>2017-04-09T14:08:55Z</time></trkpt><trkpt lat="43.7147890404" lon="5.3318990953"><ele>163.08</ele><time>2017-04-09T14:09:15Z</time></trkpt><trkpt lat="43.7148165330" lon="5.3315996099"><ele>163.08</ele><time>2017-04-09T14:09:34Z</time></trkpt><trkpt lat="43.7148540001" lon="5.3312639147"><ele>163.08</ele><time>2017-04-09T14:09:55Z</time></trkpt><trkpt lat="43.7149158586" lon="5.3309791815"><ele>162.60</ele><time>2017-04-09T14:10:14Z</time></trkpt><trkpt lat="43.7149498053" lon="5.3307044227"><ele>162.60</ele><time>2017-04-09T14:10:33Z</time></trkpt><trkpt lat="43.7149604503" lon="5.3304468468"><ele>162.60</ele><time>2017-04-09T14:10:52Z</time></trkpt><trkpt lat="43.7149735261" lon="5.3303849883"><ele>162.60</ele><time>2017-04-09T14:11:06Z</time></trkpt><trkpt lat="43.7149868533" lon="5.3304061946"><ele>162.60</ele><time>2017-04-09T14:11:34Z</time></trkpt><trkpt lat="43.7149553373" lon="5.3304114752"><ele>162.60</ele><time>2017-04-09T14:12:03Z</time></trkpt><trkpt lat="43.7149435189" lon="5.3304252215"><ele>163.08</ele><time>2017-04-09T14:12:19Z</time></trkpt><trkpt lat="43.7149358075" lon="5.3304079548"><ele>163.08</ele><time>2017-04-09T14:12:49Z</time></trkpt><trkpt lat="43.7149378192" lon="5.3304129001"><ele>163.08</ele><time>2017-04-09T14:13:21Z</time></trkpt><trkpt lat="43.7149210554" lon="5.3304422367"><ele>163.08</ele><time>2017-04-09T14:13:52Z</time></trkpt><trkpt lat="43.7149260845" lon="5.3303419892"><ele>163.56</ele><time>2017-04-09T14:14:09Z</time></trkpt><trkpt lat="43.7149327900" lon="5.3302145842"><ele>163.56</ele><time>2017-04-09T14:14:23Z</time></trkpt><trkpt lat="43.7149089854" lon="5.3301804699"><ele>163.56</ele><time>2017-04-09T14:14:38Z</time></trkpt><trkpt lat="43.7149046268" lon="5.3301833197"><ele>163.56</ele><time>2017-04-09T14:14:58Z</time></trkpt><trkpt lat="43.7148955744" lon="5.3301766980"><ele>163.56</ele><time>2017-04-09T14:15:20Z</time></trkpt><trkpt lat="43.7149085663" lon="5.3301660530"><ele>163.56</ele><time>2017-04-09T14:15:44Z</time></trkpt><trkpt lat="43.7148912996" lon="5.3301777877"><ele>164.04</ele><time>2017-04-09T14:16:13Z</time></trkpt><trkpt lat="43.7148923893" lon="5.3301701602"><ele>162.60</ele><time>2017-04-09T14:16:36Z</time></trkpt><trkpt lat="43.7149420101" lon="5.3301466070"><ele>162.60</ele><time>2017-04-09T14:16:47Z</time></trkpt><trkpt lat="43.7149788905" lon="5.3300520591"><ele>163.08</ele><time>2017-04-09T14:16:59Z</time></trkpt><trkpt lat="43.7149214745" lon="5.3300902806"><ele>163.08</ele><time>2017-04-09T14:17:21Z</time></trkpt><trkpt lat="43.7149058841" lon="5.3300534841"><ele>163.08</ele><time>2017-04-09T14:17:53Z</time></trkpt><trkpt lat="43.7149208039" lon="5.3300726786"><ele>163.08</ele><time>2017-04-09T14:18:19Z</time></trkpt><trkpt lat="43.7149322033" lon="5.3300166875"><ele>163.08</ele><time>2017-04-09T14:18:47Z</time></trkpt><trkpt lat="43.7149607856" lon="5.3298156057"><ele>163.08</ele><time>2017-04-09T14:19:03Z</time></trkpt><trkpt lat="43.7150072213" lon="5.3296487220"><ele>163.08</ele><time>2017-04-09T14:19:16Z</time></trkpt><trkpt lat="43.7150482088" lon="5.3295180481"><ele>163.08</ele><time>2017-04-09T14:19:26Z</time></trkpt><trkpt lat="43.7151355483" lon="5.3293005377"><ele>163.08</ele><time>2017-04-09T14:19:43Z</time></trkpt><trkpt lat="43.7151589338" lon="5.3292772360"><ele>163.08</ele><time>2017-04-09T14:19:47Z</time></trkpt><trkpt lat="43.7153461855" lon="5.3292303812"><ele>161.16</ele><time>2017-04-09T14:20:06Z</time></trkpt><trkpt lat="43.7155387178" lon="5.3291886393"><ele>159.24</ele><time>2017-04-09T14:20:27Z</time></trkpt><trkpt lat="43.7156948727" lon="5.3291505016"><ele>158.27</ele><time>2017-04-09T14:20:46Z</time></trkpt><trkpt lat="43.7158285640" lon="5.3290950134"><ele>156.83</ele><time>2017-04-09T14:21:05Z</time></trkpt><trkpt lat="43.7158935238" lon="5.3290152177"><ele>156.35</ele><time>2017-04-09T14:21:20Z</time></trkpt><trkpt lat="43.7159381155" lon="5.3288656846"><ele>154.91</ele><time>2017-04-09T14:21:37Z</time></trkpt><trkpt lat="43.7159816176" lon="5.3287289757"><ele>154.43</ele><time>2017-04-09T14:21:53Z</time></trkpt><trkpt lat="43.7160032429" lon="5.3287650179"><ele>154.43</ele><time>2017-04-09T14:22:09Z</time></trkpt><trkpt lat="43.7159826234" lon="5.3287742380"><ele>154.43</ele><time>2017-04-09T14:22:40Z</time></trkpt><trkpt lat="43.7159966212" lon="5.3287725616"><ele>154.43</ele><time>2017-04-09T14:23:05Z</time></trkpt><trkpt lat="43.7159557175" lon="5.3288465738"><ele>154.43</ele><time>2017-04-09T14:23:25Z</time></trkpt><trkpt lat="43.7159148138" lon="5.3289034031"><ele>154.43</ele><time>2017-04-09T14:23:40Z</time></trkpt><trkpt lat="43.7158620916" lon="5.3290701192"><ele>156.35</ele><time>2017-04-09T14:23:57Z</time></trkpt><trkpt lat="43.7157728244" lon="5.3291284572"><ele>157.79</ele><time>2017-04-09T14:24:13Z</time></trkpt><trkpt lat="43.7156884186" lon="5.3291970212"><ele>158.75</ele><time>2017-04-09T14:24:30Z</time></trkpt><trkpt lat="43.7157054339" lon="5.3292650823"><ele>162.12</ele><time>2017-04-09T14:24:44Z</time></trkpt><trkpt lat="43.7158249598" lon="5.3292573709"><ele>162.12</ele><time>2017-04-09T14:25:00Z</time></trkpt><trkpt lat="43.7158553861" lon="5.3292183951"><ele>160.20</ele><time>2017-04-09T14:25:21Z</time></trkpt><trkpt lat="43.7158587389" lon="5.3292705305"><ele>160.20</ele><time>2017-04-09T14:25:43Z</time></trkpt><trkpt lat="43.7158662826" lon="5.3293472249"><ele>163.08</ele><time>2017-04-09T14:25:59Z</time></trkpt><trkpt lat="43.7158964574" lon="5.3293480631"><ele>163.08</ele><time>2017-04-09T14:26:20Z</time></trkpt><trkpt lat="43.7159060128" lon="5.3294421919"><ele>163.56</ele><time>2017-04-09T14:26:45Z</time></trkpt><trkpt lat="43.7159383669" lon="5.3295482229"><ele>163.56</ele><time>2017-04-09T14:27:02Z</time></trkpt><trkpt lat="43.7159090303" lon="5.3294161242"><ele>163.56</ele><time>2017-04-09T14:27:19Z</time></trkpt><trkpt lat="43.7158137280" lon="5.3293450456"><ele>163.56</ele><time>2017-04-09T14:27:35Z</time></trkpt><trkpt lat="43.7156652007" lon="5.3293270245"><ele>164.04</ele><time>2017-04-09T14:27:52Z</time></trkpt><trkpt lat="43.7156437431" lon="5.3293298744"><ele>164.04</ele><time>2017-04-09T14:28:06Z</time></trkpt><trkpt lat="43.7156148255" lon="5.3293461353"><ele>164.52</ele><time>2017-04-09T14:28:37Z</time></trkpt><trkpt lat="43.7154754344" lon="5.3293493204"><ele>165.48</ele><time>2017-04-09T14:28:54Z</time></trkpt><trkpt lat="43.7154542282" lon="5.3293472249"><ele>165.48</ele><time>2017-04-09T14:28:56Z</time></trkpt><trkpt lat="43.7152678985" lon="5.3293766454"><ele>165.48</ele><time>2017-04-09T14:29:13Z</time></trkpt><trkpt lat="43.7151109893" lon="5.3294462990"><ele>165.48</ele><time>2017-04-09T14:29:30Z</time></trkpt><trkpt lat="43.7150646374" lon="5.3294975124"><ele>164.04</ele><time>2017-04-09T14:29:37Z</time></trkpt><trkpt lat="43.7150119152" lon="5.3296340536"><ele>163.56</ele><time>2017-04-09T14:29:53Z</time></trkpt><trkpt lat="43.7149611209" lon="5.3298323695"><ele>164.52</ele><time>2017-04-09T14:30:10Z</time></trkpt><trkpt lat="43.7149626296" lon="5.3300762828"><ele>164.52</ele><time>2017-04-09T14:30:28Z</time></trkpt><trkpt lat="43.7149579357" lon="5.3301523905"><ele>165.00</ele><time>2017-04-09T14:30:46Z</time></trkpt><trkpt lat="43.7149544992" lon="5.3301504627"><ele>165.00</ele><time>2017-04-09T14:30:55Z</time></trkpt></trkseg></trk></gpx>